<?xml version="1.0" encoding="UTF-8" standalone="no" ?>
<gpx xmlns="http://www.topografix.com/GPX/1/1" xmlns:xsi="http://www.w3.org/2001/XMLSchema-instance" xsi:schemaLocation="http://www.topografix.com/GPX/1/1 http://www.topografix.com/GPX/1/1/gpx.xsd" version="1.1" creator="VisuGPX - https://www.visugpx.com">
  <metadata>
    <name>56-ARZON-050-0250m-SUSCINIO-(GPX)</name>
    <desc><![CDATA[Circuit en boucle
Départ Arzon]]></desc>
  </metadata>
  <trk>
    <name><![CDATA[8612217-(56)_PORT_NAVALO 50km_400mD+]]></name>
    <extensions>
      <line xmlns="http://www.topografix.com/GPX/gpx_style/0/2">
        <color>0000FF</color>
        <width>4</width>
          <extensions>
            <sens>1</sens>
          </extensions>
      </line>
    </extensions>
    <trkseg>
      <trkpt lat="47.54878" lon="-2.91697">
        <ele>5</ele>
        <time>2018-05-03T06:11:04Z</time>
      </trkpt>
      <trkpt lat="47.54875" lon="-2.91694">
        <ele>5</ele>
        <time>2018-05-03T06:12:04Z</time>
      </trkpt>
      <trkpt lat="47.54871" lon="-2.91703">
        <ele>6</ele>
        <time>2018-05-03T06:13:04Z</time>
      </trkpt>
      <trkpt lat="47.54839" lon="-2.91721">
        <ele>9</ele>
        <time>2018-05-03T06:14:04Z</time>
      </trkpt>
      <trkpt lat="47.5476" lon="-2.91771">
        <ele>13</ele>
        <time>2018-05-03T06:15:04Z</time>
      </trkpt>
      <trkpt lat="47.54743" lon="-2.91777">
        <ele>13</ele>
        <time>2018-05-03T06:16:04Z</time>
      </trkpt>
      <trkpt lat="47.54726" lon="-2.91768">
        <ele>13</ele>
        <time>2018-05-03T06:17:04Z</time>
      </trkpt>
      <trkpt lat="47.54717" lon="-2.91754">
        <ele>14</ele>
        <time>2018-05-03T06:18:04Z</time>
      </trkpt>
      <trkpt lat="47.54704" lon="-2.91729">
        <ele>14</ele>
        <time>2018-05-03T06:19:04Z</time>
      </trkpt>
      <trkpt lat="47.54686" lon="-2.91712">
        <ele>15</ele>
        <time>2018-05-03T06:20:04Z</time>
      </trkpt>
      <trkpt lat="47.54678" lon="-2.91698">
        <ele>15</ele>
        <time>2018-05-03T06:21:04Z</time>
      </trkpt>
      <trkpt lat="47.54678" lon="-2.91698">
        <ele>15</ele>
        <time>2018-05-03T06:22:04Z</time>
      </trkpt>
      <trkpt lat="47.54674" lon="-2.91686">
        <ele>15</ele>
        <time>2018-05-03T06:23:04Z</time>
      </trkpt>
      <trkpt lat="47.54672" lon="-2.91658">
        <ele>15</ele>
        <time>2018-05-03T06:24:04Z</time>
      </trkpt>
      <trkpt lat="47.54691" lon="-2.91447">
        <ele>10</ele>
        <time>2018-05-03T06:25:04Z</time>
      </trkpt>
      <trkpt lat="47.54739" lon="-2.91241">
        <ele>13</ele>
        <time>2018-05-03T06:26:04Z</time>
      </trkpt>
      <trkpt lat="47.5476" lon="-2.91209">
        <ele>12</ele>
        <time>2018-05-03T06:28:04Z</time>
      </trkpt>
      <trkpt lat="47.54773" lon="-2.91204">
        <ele>10</ele>
        <time>2018-05-03T06:29:04Z</time>
      </trkpt>
      <trkpt lat="47.54799" lon="-2.9118">
        <ele>9</ele>
        <time>2018-05-03T06:31:04Z</time>
      </trkpt>
      <trkpt lat="47.54825" lon="-2.91106">
        <ele>6</ele>
        <time>2018-05-03T06:32:04Z</time>
      </trkpt>
      <trkpt lat="47.5482" lon="-2.91043">
        <ele>6</ele>
        <time>2018-05-03T06:34:04Z</time>
      </trkpt>
      <trkpt lat="47.54817" lon="-2.91002">
        <ele>7</ele>
        <time>2018-05-03T06:35:04Z</time>
      </trkpt>
      <trkpt lat="47.54814" lon="-2.90981">
        <ele>8</ele>
        <time>2018-05-03T06:36:04Z</time>
      </trkpt>
      <trkpt lat="47.54806" lon="-2.90956">
        <ele>9</ele>
        <time>2018-05-03T06:37:04Z</time>
      </trkpt>
      <trkpt lat="47.54786" lon="-2.90964">
        <ele>9</ele>
        <time>2018-05-03T06:38:04Z</time>
      </trkpt>
      <trkpt lat="47.54709" lon="-2.90969">
        <ele>12</ele>
        <time>2018-05-03T06:39:04Z</time>
      </trkpt>
      <trkpt lat="47.54668" lon="-2.90961">
        <ele>14</ele>
        <time>2018-05-03T06:40:04Z</time>
      </trkpt>
      <trkpt lat="47.54655" lon="-2.90954">
        <ele>14</ele>
        <time>2018-05-03T06:41:04Z</time>
      </trkpt>
      <trkpt lat="47.54645" lon="-2.90931">
        <ele>14</ele>
        <time>2018-05-03T06:42:04Z</time>
      </trkpt>
      <trkpt lat="47.54636" lon="-2.90917">
        <ele>14</ele>
        <time>2018-05-03T06:43:04Z</time>
      </trkpt>
      <trkpt lat="47.54636" lon="-2.90889">
        <ele>13</ele>
        <time>2018-05-03T06:44:04Z</time>
      </trkpt>
      <trkpt lat="47.54634" lon="-2.90874">
        <ele>13</ele>
        <time>2018-05-03T06:45:04Z</time>
      </trkpt>
      <trkpt lat="47.54634" lon="-2.90874">
        <ele>13</ele>
        <time>2018-05-03T06:46:04Z</time>
      </trkpt>
      <trkpt lat="47.54629" lon="-2.90834">
        <ele>13</ele>
        <time>2018-05-03T06:47:04Z</time>
      </trkpt>
      <trkpt lat="47.54608" lon="-2.90777">
        <ele>12</ele>
        <time>2018-05-03T06:48:04Z</time>
      </trkpt>
      <trkpt lat="47.54594" lon="-2.90743">
        <ele>12</ele>
        <time>2018-05-03T06:49:04Z</time>
      </trkpt>
      <trkpt lat="47.54584" lon="-2.90692">
        <ele>11</ele>
        <time>2018-05-03T06:50:04Z</time>
      </trkpt>
      <trkpt lat="47.54585" lon="-2.90662">
        <ele>11</ele>
        <time>2018-05-03T06:51:04Z</time>
      </trkpt>
      <trkpt lat="47.54589" lon="-2.90638">
        <ele>11</ele>
        <time>2018-05-03T06:52:04Z</time>
      </trkpt>
      <trkpt lat="47.54596" lon="-2.90603">
        <ele>11</ele>
        <time>2018-05-03T06:53:04Z</time>
      </trkpt>
      <trkpt lat="47.54606" lon="-2.90563">
        <ele>11</ele>
        <time>2018-05-03T06:54:04Z</time>
      </trkpt>
      <trkpt lat="47.54639" lon="-2.90402">
        <ele>11</ele>
        <time>2018-05-03T06:56:04Z</time>
      </trkpt>
      <trkpt lat="47.54647" lon="-2.90386">
        <ele>11</ele>
        <time>2018-05-03T06:57:04Z</time>
      </trkpt>
      <trkpt lat="47.54671" lon="-2.90351">
        <ele>11</ele>
        <time>2018-05-03T06:58:04Z</time>
      </trkpt>
      <trkpt lat="47.54672" lon="-2.90344">
        <ele>11</ele>
        <time>2018-05-03T06:59:04Z</time>
      </trkpt>
      <trkpt lat="47.54672" lon="-2.90338">
        <ele>11</ele>
        <time>2018-05-03T07:00:04Z</time>
      </trkpt>
      <trkpt lat="47.54663" lon="-2.90317">
        <ele>11</ele>
        <time>2018-05-03T07:01:04Z</time>
      </trkpt>
      <trkpt lat="47.54664" lon="-2.90305">
        <ele>10</ele>
        <time>2018-05-03T07:02:04Z</time>
      </trkpt>
      <trkpt lat="47.54677" lon="-2.90233">
        <ele>9</ele>
        <time>2018-05-03T07:03:04Z</time>
      </trkpt>
      <trkpt lat="47.54684" lon="-2.9017">
        <ele>9</ele>
        <time>2018-05-03T07:04:04Z</time>
      </trkpt>
      <trkpt lat="47.54686" lon="-2.9007">
        <ele>7</ele>
        <time>2018-05-03T07:05:04Z</time>
      </trkpt>
      <trkpt lat="47.54683" lon="-2.90004">
        <ele>6</ele>
        <time>2018-05-03T07:06:04Z</time>
      </trkpt>
      <trkpt lat="47.54683" lon="-2.89999">
        <ele>6</ele>
        <time>2018-05-03T07:07:04Z</time>
      </trkpt>
      <trkpt lat="47.54688" lon="-2.89989">
        <ele>6</ele>
        <time>2018-05-03T07:08:04Z</time>
      </trkpt>
      <trkpt lat="47.54686" lon="-2.89979">
        <ele>6</ele>
        <time>2018-05-03T07:09:04Z</time>
      </trkpt>
      <trkpt lat="47.5468" lon="-2.89969">
        <ele>6</ele>
        <time>2018-05-03T07:10:04Z</time>
      </trkpt>
      <trkpt lat="47.54676" lon="-2.89912">
        <ele>5</ele>
        <time>2018-05-03T07:11:04Z</time>
      </trkpt>
      <trkpt lat="47.54661" lon="-2.89664">
        <ele>4</ele>
        <time>2018-05-03T07:12:04Z</time>
      </trkpt>
      <trkpt lat="47.54662" lon="-2.89639">
        <ele>5</ele>
        <time>2018-05-03T07:13:04Z</time>
      </trkpt>
      <trkpt lat="47.54664" lon="-2.89627">
        <ele>5</ele>
        <time>2018-05-03T07:14:04Z</time>
      </trkpt>
      <trkpt lat="47.54662" lon="-2.89621">
        <ele>5</ele>
        <time>2018-05-03T07:15:04Z</time>
      </trkpt>
      <trkpt lat="47.54647" lon="-2.89635">
        <ele>5</ele>
        <time>2018-05-03T07:16:04Z</time>
      </trkpt>
      <trkpt lat="47.5461" lon="-2.8906">
        <ele>6</ele>
        <time>2018-05-03T07:17:04Z</time>
      </trkpt>
      <trkpt lat="47.54605" lon="-2.89047">
        <ele>5</ele>
        <time>2018-05-03T07:18:04Z</time>
      </trkpt>
      <trkpt lat="47.546" lon="-2.89045">
        <ele>5</ele>
        <time>2018-05-03T07:19:04Z</time>
      </trkpt>
      <trkpt lat="47.5459" lon="-2.89046">
        <ele>5</ele>
        <time>2018-05-03T07:20:04Z</time>
      </trkpt>
      <trkpt lat="47.54582" lon="-2.89051">
        <ele>5</ele>
        <time>2018-05-03T07:21:04Z</time>
      </trkpt>
      <trkpt lat="47.54576" lon="-2.89062">
        <ele>5</ele>
        <time>2018-05-03T07:22:04Z</time>
      </trkpt>
      <trkpt lat="47.54575" lon="-2.89068">
        <ele>5</ele>
        <time>2018-05-03T07:23:04Z</time>
      </trkpt>
      <trkpt lat="47.54577" lon="-2.891">
        <ele>5</ele>
        <time>2018-05-03T07:24:04Z</time>
      </trkpt>
      <trkpt lat="47.54576" lon="-2.89104">
        <ele>5</ele>
        <time>2018-05-03T07:25:04Z</time>
      </trkpt>
      <trkpt lat="47.5457" lon="-2.89109">
        <ele>4</ele>
        <time>2018-05-03T07:26:04Z</time>
      </trkpt>
      <trkpt lat="47.54563" lon="-2.89106">
        <ele>4</ele>
        <time>2018-05-03T07:27:04Z</time>
      </trkpt>
      <trkpt lat="47.54552" lon="-2.89112">
        <ele>4</ele>
        <time>2018-05-03T07:28:04Z</time>
      </trkpt>
      <trkpt lat="47.54542" lon="-2.89095">
        <ele>3</ele>
        <time>2018-05-03T07:29:04Z</time>
      </trkpt>
      <trkpt lat="47.54543" lon="-2.89093">
        <ele>3</ele>
        <time>2018-05-03T07:30:04Z</time>
      </trkpt>
      <trkpt lat="47.54543" lon="-2.89093">
        <ele>3</ele>
        <time>2018-05-03T07:31:04Z</time>
      </trkpt>
      <trkpt lat="47.54542" lon="-2.89095">
        <ele>3</ele>
        <time>2018-05-03T07:32:04Z</time>
      </trkpt>
      <trkpt lat="47.54533" lon="-2.89086">
        <ele>3</ele>
        <time>2018-05-03T07:33:04Z</time>
      </trkpt>
      <trkpt lat="47.54477" lon="-2.89014">
        <ele>6</ele>
        <time>2018-05-03T07:34:04Z</time>
      </trkpt>
      <trkpt lat="47.54471" lon="-2.89013">
        <ele>6</ele>
        <time>2018-05-03T07:35:04Z</time>
      </trkpt>
      <trkpt lat="47.54313" lon="-2.89213">
        <ele>5</ele>
        <time>2018-05-03T07:36:04Z</time>
      </trkpt>
      <trkpt lat="47.54307" lon="-2.89215">
        <ele>5</ele>
        <time>2018-05-03T07:37:04Z</time>
      </trkpt>
      <trkpt lat="47.54288" lon="-2.89213">
        <ele>6</ele>
        <time>2018-05-03T07:38:04Z</time>
      </trkpt>
      <trkpt lat="47.5426" lon="-2.89247">
        <ele>6</ele>
        <time>2018-05-03T07:39:04Z</time>
      </trkpt>
      <trkpt lat="47.54258" lon="-2.89251">
        <ele>6</ele>
        <time>2018-05-03T07:40:04Z</time>
      </trkpt>
      <trkpt lat="47.54248" lon="-2.8933">
        <ele>3</ele>
        <time>2018-05-03T07:41:04Z</time>
      </trkpt>
      <trkpt lat="47.54237" lon="-2.89354">
        <ele>4</ele>
        <time>2018-05-03T07:42:04Z</time>
      </trkpt>
      <trkpt lat="47.54225" lon="-2.8943">
        <ele>3</ele>
        <time>2018-05-03T07:43:04Z</time>
      </trkpt>
      <trkpt lat="47.54125" lon="-2.89366">
        <ele>12</ele>
        <time>2018-05-03T07:44:04Z</time>
      </trkpt>
      <trkpt lat="47.54115" lon="-2.89388">
        <ele>12</ele>
        <time>2018-05-03T07:45:04Z</time>
      </trkpt>
      <trkpt lat="47.54093" lon="-2.8942">
        <ele>11</ele>
        <time>2018-05-03T07:46:04Z</time>
      </trkpt>
      <trkpt lat="47.53985" lon="-2.89524">
        <ele>10</ele>
        <time>2018-05-03T07:47:04Z</time>
      </trkpt>
      <trkpt lat="47.53969" lon="-2.89563">
        <ele>11</ele>
        <time>2018-05-03T07:48:04Z</time>
      </trkpt>
      <trkpt lat="47.53918" lon="-2.8969">
        <ele>16</ele>
        <time>2018-05-03T07:49:04Z</time>
      </trkpt>
      <trkpt lat="47.53887" lon="-2.89781">
        <ele>19</ele>
        <time>2018-05-03T07:50:04Z</time>
      </trkpt>
      <trkpt lat="47.53879" lon="-2.898">
        <ele>20</ele>
        <time>2018-05-03T07:51:04Z</time>
      </trkpt>
      <trkpt lat="47.5387" lon="-2.89816">
        <ele>21</ele>
        <time>2018-05-03T07:52:04Z</time>
      </trkpt>
      <trkpt lat="47.53858" lon="-2.89829">
        <ele>23</ele>
        <time>2018-05-03T07:53:04Z</time>
      </trkpt>
      <trkpt lat="47.53831" lon="-2.89851">
        <ele>24</ele>
        <time>2018-05-03T07:54:04Z</time>
      </trkpt>
      <trkpt lat="47.53836" lon="-2.89869">
        <ele>23</ele>
        <time>2018-05-03T07:55:04Z</time>
      </trkpt>
      <trkpt lat="47.53812" lon="-2.89904">
        <ele>22</ele>
        <time>2018-05-03T07:56:04Z</time>
      </trkpt>
      <trkpt lat="47.538" lon="-2.89889">
        <ele>23</ele>
        <time>2018-05-03T07:57:04Z</time>
      </trkpt>
      <trkpt lat="47.53787" lon="-2.89904">
        <ele>23</ele>
        <time>2018-05-03T07:58:04Z</time>
      </trkpt>
      <trkpt lat="47.53741" lon="-2.89973">
        <ele>26</ele>
        <time>2018-05-03T07:59:04Z</time>
      </trkpt>
      <trkpt lat="47.53708" lon="-2.90022">
        <ele>27</ele>
        <time>2018-05-03T08:00:04Z</time>
      </trkpt>
      <trkpt lat="47.53696" lon="-2.90045">
        <ele>28</ele>
        <time>2018-05-03T08:01:04Z</time>
      </trkpt>
      <trkpt lat="47.53661" lon="-2.90094">
        <ele>29</ele>
        <time>2018-05-03T08:02:04Z</time>
      </trkpt>
      <trkpt lat="47.53659" lon="-2.9011">
        <ele>29</ele>
        <time>2018-05-03T08:03:04Z</time>
      </trkpt>
      <trkpt lat="47.5366" lon="-2.90124">
        <ele>30</ele>
        <time>2018-05-03T08:04:04Z</time>
      </trkpt>
      <trkpt lat="47.5366" lon="-2.90124">
        <ele>30</ele>
        <time>2018-05-03T08:05:04Z</time>
      </trkpt>
      <trkpt lat="47.53659" lon="-2.9011">
        <ele>29</ele>
        <time>2018-05-03T08:06:04Z</time>
      </trkpt>
      <trkpt lat="47.53661" lon="-2.90094">
        <ele>29</ele>
        <time>2018-05-03T08:07:04Z</time>
      </trkpt>
      <trkpt lat="47.53696" lon="-2.90045">
        <ele>28</ele>
        <time>2018-05-03T08:08:04Z</time>
      </trkpt>
      <trkpt lat="47.53708" lon="-2.90022">
        <ele>27</ele>
        <time>2018-05-03T08:09:04Z</time>
      </trkpt>
      <trkpt lat="47.53741" lon="-2.89973">
        <ele>26</ele>
        <time>2018-05-03T08:10:04Z</time>
      </trkpt>
      <trkpt lat="47.53787" lon="-2.89904">
        <ele>23</ele>
        <time>2018-05-03T08:11:04Z</time>
      </trkpt>
      <trkpt lat="47.538" lon="-2.89889">
        <ele>23</ele>
        <time>2018-05-03T08:12:04Z</time>
      </trkpt>
      <trkpt lat="47.53812" lon="-2.89904">
        <ele>22</ele>
        <time>2018-05-03T08:13:04Z</time>
      </trkpt>
      <trkpt lat="47.53836" lon="-2.89869">
        <ele>23</ele>
        <time>2018-05-03T08:14:04Z</time>
      </trkpt>
      <trkpt lat="47.53831" lon="-2.89851">
        <ele>24</ele>
        <time>2018-05-03T08:15:04Z</time>
      </trkpt>
      <trkpt lat="47.53858" lon="-2.89829">
        <ele>23</ele>
        <time>2018-05-03T08:16:04Z</time>
      </trkpt>
      <trkpt lat="47.5387" lon="-2.89816">
        <ele>21</ele>
        <time>2018-05-03T08:17:04Z</time>
      </trkpt>
      <trkpt lat="47.53879" lon="-2.898">
        <ele>20</ele>
        <time>2018-05-03T08:18:04Z</time>
      </trkpt>
      <trkpt lat="47.53887" lon="-2.89781">
        <ele>19</ele>
        <time>2018-05-03T08:19:04Z</time>
      </trkpt>
      <trkpt lat="47.53918" lon="-2.8969">
        <ele>16</ele>
        <time>2018-05-03T08:20:04Z</time>
      </trkpt>
      <trkpt lat="47.53969" lon="-2.89563">
        <ele>11</ele>
        <time>2018-05-03T08:21:04Z</time>
      </trkpt>
      <trkpt lat="47.53985" lon="-2.89524">
        <ele>10</ele>
        <time>2018-05-03T08:22:04Z</time>
      </trkpt>
      <trkpt lat="47.54093" lon="-2.8942">
        <ele>11</ele>
        <time>2018-05-03T08:23:04Z</time>
      </trkpt>
      <trkpt lat="47.54115" lon="-2.89388">
        <ele>12</ele>
        <time>2018-05-03T08:24:04Z</time>
      </trkpt>
      <trkpt lat="47.5413" lon="-2.89351">
        <ele>13</ele>
        <time>2018-05-03T08:25:04Z</time>
      </trkpt>
      <trkpt lat="47.54132" lon="-2.89339">
        <ele>14</ele>
        <time>2018-05-03T08:26:04Z</time>
      </trkpt>
      <trkpt lat="47.54147" lon="-2.89118">
        <ele>9</ele>
        <time>2018-05-03T08:27:04Z</time>
      </trkpt>
      <trkpt lat="47.54153" lon="-2.89088">
        <ele>8</ele>
        <time>2018-05-03T08:28:04Z</time>
      </trkpt>
      <trkpt lat="47.54165" lon="-2.89069">
        <ele>7</ele>
        <time>2018-05-03T08:29:04Z</time>
      </trkpt>
      <trkpt lat="47.54163" lon="-2.89055">
        <ele>7</ele>
        <time>2018-05-03T08:30:04Z</time>
      </trkpt>
      <trkpt lat="47.54167" lon="-2.89047">
        <ele>7</ele>
        <time>2018-05-03T08:31:04Z</time>
      </trkpt>
      <trkpt lat="47.54175" lon="-2.89043">
        <ele>7</ele>
        <time>2018-05-03T08:32:04Z</time>
      </trkpt>
      <trkpt lat="47.54178" lon="-2.89044">
        <ele>7</ele>
        <time>2018-05-03T08:33:04Z</time>
      </trkpt>
      <trkpt lat="47.54182" lon="-2.89034">
        <ele>7</ele>
        <time>2018-05-03T08:34:04Z</time>
      </trkpt>
      <trkpt lat="47.54183" lon="-2.88996">
        <ele>7</ele>
        <time>2018-05-03T08:35:04Z</time>
      </trkpt>
      <trkpt lat="47.54187" lon="-2.88975">
        <ele>8</ele>
        <time>2018-05-03T08:36:04Z</time>
      </trkpt>
      <trkpt lat="47.54198" lon="-2.88953">
        <ele>9</ele>
        <time>2018-05-03T08:37:04Z</time>
      </trkpt>
      <trkpt lat="47.54219" lon="-2.88897">
        <ele>11</ele>
        <time>2018-05-03T08:38:04Z</time>
      </trkpt>
      <trkpt lat="47.54231" lon="-2.88878">
        <ele>11</ele>
        <time>2018-05-03T08:39:04Z</time>
      </trkpt>
      <trkpt lat="47.5424" lon="-2.8887">
        <ele>12</ele>
        <time>2018-05-03T08:40:04Z</time>
      </trkpt>
      <trkpt lat="47.54253" lon="-2.88864">
        <ele>12</ele>
        <time>2018-05-03T08:41:04Z</time>
      </trkpt>
      <trkpt lat="47.54311" lon="-2.88855">
        <ele>13</ele>
        <time>2018-05-03T08:42:04Z</time>
      </trkpt>
      <trkpt lat="47.54324" lon="-2.88845">
        <ele>13</ele>
        <time>2018-05-03T08:43:04Z</time>
      </trkpt>
      <trkpt lat="47.54325" lon="-2.8884">
        <ele>14</ele>
        <time>2018-05-03T08:44:04Z</time>
      </trkpt>
      <trkpt lat="47.54328" lon="-2.88833">
        <ele>14</ele>
        <time>2018-05-03T08:45:04Z</time>
      </trkpt>
      <trkpt lat="47.54335" lon="-2.88829">
        <ele>14</ele>
        <time>2018-05-03T08:46:04Z</time>
      </trkpt>
      <trkpt lat="47.54325" lon="-2.88802">
        <ele>15</ele>
        <time>2018-05-03T08:47:04Z</time>
      </trkpt>
      <trkpt lat="47.54313" lon="-2.88775">
        <ele>16</ele>
        <time>2018-05-03T08:48:04Z</time>
      </trkpt>
      <trkpt lat="47.54302" lon="-2.88759">
        <ele>16</ele>
        <time>2018-05-03T08:49:04Z</time>
      </trkpt>
      <trkpt lat="47.54285" lon="-2.88741">
        <ele>16</ele>
        <time>2018-05-03T08:50:04Z</time>
      </trkpt>
      <trkpt lat="47.54234" lon="-2.88714">
        <ele>15</ele>
        <time>2018-05-03T08:51:04Z</time>
      </trkpt>
      <trkpt lat="47.54219" lon="-2.88703">
        <ele>14</ele>
        <time>2018-05-03T08:52:04Z</time>
      </trkpt>
      <trkpt lat="47.54206" lon="-2.88688">
        <ele>14</ele>
        <time>2018-05-03T08:53:04Z</time>
      </trkpt>
      <trkpt lat="47.5405" lon="-2.88326">
        <ele>18</ele>
        <time>2018-05-03T08:54:04Z</time>
      </trkpt>
      <trkpt lat="47.54036" lon="-2.88302">
        <ele>18</ele>
        <time>2018-05-03T08:55:04Z</time>
      </trkpt>
      <trkpt lat="47.54023" lon="-2.88287">
        <ele>18</ele>
        <time>2018-05-03T08:56:04Z</time>
      </trkpt>
      <trkpt lat="47.5399" lon="-2.88262">
        <ele>17</ele>
        <time>2018-05-03T08:57:04Z</time>
      </trkpt>
      <trkpt lat="47.53974" lon="-2.88253">
        <ele>17</ele>
        <time>2018-05-03T08:58:04Z</time>
      </trkpt>
      <trkpt lat="47.53962" lon="-2.88236">
        <ele>17</ele>
        <time>2018-05-03T08:59:04Z</time>
      </trkpt>
      <trkpt lat="47.53953" lon="-2.88216">
        <ele>17</ele>
        <time>2018-05-03T09:00:04Z</time>
      </trkpt>
      <trkpt lat="47.53945" lon="-2.88065">
        <ele>18</ele>
        <time>2018-05-03T09:01:04Z</time>
      </trkpt>
      <trkpt lat="47.53937" lon="-2.88045">
        <ele>18</ele>
        <time>2018-05-03T09:02:04Z</time>
      </trkpt>
      <trkpt lat="47.53934" lon="-2.8804">
        <ele>18</ele>
        <time>2018-05-03T09:03:04Z</time>
      </trkpt>
      <trkpt lat="47.53929" lon="-2.88037">
        <ele>18</ele>
        <time>2018-05-03T09:04:04Z</time>
      </trkpt>
      <trkpt lat="47.53916" lon="-2.88035">
        <ele>18</ele>
        <time>2018-05-03T09:05:04Z</time>
      </trkpt>
      <trkpt lat="47.5394" lon="-2.8803">
        <ele>18</ele>
        <time>2018-05-03T09:06:04Z</time>
      </trkpt>
      <trkpt lat="47.53953" lon="-2.88018">
        <ele>18</ele>
        <time>2018-05-03T09:07:04Z</time>
      </trkpt>
      <trkpt lat="47.5402" lon="-2.87933">
        <ele>17</ele>
        <time>2018-05-03T09:08:04Z</time>
      </trkpt>
      <trkpt lat="47.54026" lon="-2.87911">
        <ele>17</ele>
        <time>2018-05-03T09:09:04Z</time>
      </trkpt>
      <trkpt lat="47.54023" lon="-2.87903">
        <ele>16</ele>
        <time>2018-05-03T09:10:04Z</time>
      </trkpt>
      <trkpt lat="47.54022" lon="-2.87895">
        <ele>16</ele>
        <time>2018-05-03T09:11:04Z</time>
      </trkpt>
      <trkpt lat="47.54023" lon="-2.87888">
        <ele>16</ele>
        <time>2018-05-03T09:12:04Z</time>
      </trkpt>
      <trkpt lat="47.54029" lon="-2.87878">
        <ele>16</ele>
        <time>2018-05-03T09:13:04Z</time>
      </trkpt>
      <trkpt lat="47.54034" lon="-2.87875">
        <ele>16</ele>
        <time>2018-05-03T09:14:04Z</time>
      </trkpt>
      <trkpt lat="47.54031" lon="-2.87864">
        <ele>16</ele>
        <time>2018-05-03T09:15:04Z</time>
      </trkpt>
      <trkpt lat="47.54031" lon="-2.87864">
        <ele>16</ele>
        <time>2018-05-03T09:16:04Z</time>
      </trkpt>
      <trkpt lat="47.54034" lon="-2.87875">
        <ele>16</ele>
        <time>2018-05-03T09:17:04Z</time>
      </trkpt>
      <trkpt lat="47.54037" lon="-2.87875">
        <ele>16</ele>
        <time>2018-05-03T09:18:04Z</time>
      </trkpt>
      <trkpt lat="47.54044" lon="-2.87879">
        <ele>16</ele>
        <time>2018-05-03T09:19:04Z</time>
      </trkpt>
      <trkpt lat="47.54052" lon="-2.87894">
        <ele>16</ele>
        <time>2018-05-03T09:20:04Z</time>
      </trkpt>
      <trkpt lat="47.54059" lon="-2.87899">
        <ele>16</ele>
        <time>2018-05-03T09:21:04Z</time>
      </trkpt>
      <trkpt lat="47.54067" lon="-2.87897">
        <ele>16</ele>
        <time>2018-05-03T09:22:04Z</time>
      </trkpt>
      <trkpt lat="47.54075" lon="-2.8789">
        <ele>16</ele>
        <time>2018-05-03T09:23:04Z</time>
      </trkpt>
      <trkpt lat="47.5408" lon="-2.87882">
        <ele>16</ele>
        <time>2018-05-03T09:24:04Z</time>
      </trkpt>
      <trkpt lat="47.54084" lon="-2.87869">
        <ele>16</ele>
        <time>2018-05-03T09:25:04Z</time>
      </trkpt>
      <trkpt lat="47.54078" lon="-2.87846">
        <ele>16</ele>
        <time>2018-05-03T09:26:04Z</time>
      </trkpt>
      <trkpt lat="47.54019" lon="-2.87705">
        <ele>15</ele>
        <time>2018-05-03T09:27:04Z</time>
      </trkpt>
      <trkpt lat="47.5399" lon="-2.8762">
        <ele>15</ele>
        <time>2018-05-03T09:28:04Z</time>
      </trkpt>
      <trkpt lat="47.53938" lon="-2.8741">
        <ele>15</ele>
        <time>2018-05-03T09:29:04Z</time>
      </trkpt>
      <trkpt lat="47.53808" lon="-2.86837">
        <ele>17</ele>
        <time>2018-05-03T09:30:04Z</time>
      </trkpt>
      <trkpt lat="47.53548" lon="-2.8596">
        <ele>14</ele>
        <time>2018-05-03T09:31:04Z</time>
      </trkpt>
      <trkpt lat="47.53357" lon="-2.85344">
        <ele>3</ele>
        <time>2018-05-03T09:32:04Z</time>
      </trkpt>
      <trkpt lat="47.53313" lon="-2.85184">
        <ele>5</ele>
        <time>2018-05-03T09:33:04Z</time>
      </trkpt>
      <trkpt lat="47.53272" lon="-2.8501">
        <ele>10</ele>
        <time>2018-05-03T09:34:04Z</time>
      </trkpt>
      <trkpt lat="47.53244" lon="-2.84874">
        <ele>14</ele>
        <time>2018-05-03T09:35:04Z</time>
      </trkpt>
      <trkpt lat="47.53223" lon="-2.84732">
        <ele>12</ele>
        <time>2018-05-03T09:36:04Z</time>
      </trkpt>
      <trkpt lat="47.53208" lon="-2.84579">
        <ele>13</ele>
        <time>2018-05-03T09:37:04Z</time>
      </trkpt>
      <trkpt lat="47.53203" lon="-2.8455">
        <ele>13</ele>
        <time>2018-05-03T09:38:04Z</time>
      </trkpt>
      <trkpt lat="47.53195" lon="-2.84515">
        <ele>13</ele>
        <time>2018-05-03T09:39:04Z</time>
      </trkpt>
      <trkpt lat="47.5319" lon="-2.84506">
        <ele>13</ele>
        <time>2018-05-03T09:40:04Z</time>
      </trkpt>
      <trkpt lat="47.53183" lon="-2.84501">
        <ele>13</ele>
        <time>2018-05-03T09:41:04Z</time>
      </trkpt>
      <trkpt lat="47.53178" lon="-2.84493">
        <ele>13</ele>
        <time>2018-05-03T09:42:04Z</time>
      </trkpt>
      <trkpt lat="47.53174" lon="-2.84484">
        <ele>13</ele>
        <time>2018-05-03T09:43:04Z</time>
      </trkpt>
      <trkpt lat="47.53172" lon="-2.84468">
        <ele>13</ele>
        <time>2018-05-03T09:44:04Z</time>
      </trkpt>
      <trkpt lat="47.53163" lon="-2.84454">
        <ele>13</ele>
        <time>2018-05-03T09:45:04Z</time>
      </trkpt>
      <trkpt lat="47.53129" lon="-2.84436">
        <ele>13</ele>
        <time>2018-05-03T09:46:04Z</time>
      </trkpt>
      <trkpt lat="47.53099" lon="-2.84425">
        <ele>14</ele>
        <time>2018-05-03T09:47:04Z</time>
      </trkpt>
      <trkpt lat="47.5303" lon="-2.8442">
        <ele>13</ele>
        <time>2018-05-03T09:48:04Z</time>
      </trkpt>
      <trkpt lat="47.52962" lon="-2.84422">
        <ele>12</ele>
        <time>2018-05-03T09:49:04Z</time>
      </trkpt>
      <trkpt lat="47.52585" lon="-2.84477">
        <ele>6</ele>
        <time>2018-05-03T09:50:04Z</time>
      </trkpt>
      <trkpt lat="47.52357" lon="-2.84518">
        <ele>10</ele>
        <time>2018-05-03T09:51:04Z</time>
      </trkpt>
      <trkpt lat="47.52251" lon="-2.84527">
        <ele>8</ele>
        <time>2018-05-03T09:52:04Z</time>
      </trkpt>
      <trkpt lat="47.52206" lon="-2.84527">
        <ele>7</ele>
        <time>2018-05-03T09:53:04Z</time>
      </trkpt>
      <trkpt lat="47.52164" lon="-2.84522">
        <ele>6</ele>
        <time>2018-05-03T09:54:04Z</time>
      </trkpt>
      <trkpt lat="47.51581" lon="-2.84396">
        <ele>12</ele>
        <time>2018-05-03T09:55:04Z</time>
      </trkpt>
      <trkpt lat="47.51476" lon="-2.84351">
        <ele>16</ele>
        <time>2018-05-03T09:56:04Z</time>
      </trkpt>
      <trkpt lat="47.51445" lon="-2.84334">
        <ele>17</ele>
        <time>2018-05-03T09:57:04Z</time>
      </trkpt>
      <trkpt lat="47.51434" lon="-2.8433">
        <ele>17</ele>
        <time>2018-05-03T09:58:04Z</time>
      </trkpt>
      <trkpt lat="47.51406" lon="-2.84329">
        <ele>18</ele>
        <time>2018-05-03T09:59:04Z</time>
      </trkpt>
      <trkpt lat="47.51405" lon="-2.84335">
        <ele>18</ele>
        <time>2018-05-03T10:00:04Z</time>
      </trkpt>
      <trkpt lat="47.514" lon="-2.84344">
        <ele>18</ele>
        <time>2018-05-03T10:01:04Z</time>
      </trkpt>
      <trkpt lat="47.51396" lon="-2.84345">
        <ele>19</ele>
        <time>2018-05-03T10:02:04Z</time>
      </trkpt>
      <trkpt lat="47.5139" lon="-2.84343">
        <ele>19</ele>
        <time>2018-05-03T10:03:04Z</time>
      </trkpt>
      <trkpt lat="47.51386" lon="-2.84338">
        <ele>19</ele>
        <time>2018-05-03T10:04:04Z</time>
      </trkpt>
      <trkpt lat="47.51384" lon="-2.84331">
        <ele>19</ele>
        <time>2018-05-03T10:05:04Z</time>
      </trkpt>
      <trkpt lat="47.51373" lon="-2.84333">
        <ele>20</ele>
        <time>2018-05-03T10:06:04Z</time>
      </trkpt>
      <trkpt lat="47.51365" lon="-2.84331">
        <ele>20</ele>
        <time>2018-05-03T10:07:04Z</time>
      </trkpt>
      <trkpt lat="47.51263" lon="-2.84138">
        <ele>25</ele>
        <time>2018-05-03T10:08:04Z</time>
      </trkpt>
      <trkpt lat="47.51269" lon="-2.84135">
        <ele>25</ele>
        <time>2018-05-03T10:09:04Z</time>
      </trkpt>
      <trkpt lat="47.51203" lon="-2.84014">
        <ele>28</ele>
        <time>2018-05-03T10:10:04Z</time>
      </trkpt>
      <trkpt lat="47.5116" lon="-2.8395">
        <ele>29</ele>
        <time>2018-05-03T10:11:04Z</time>
      </trkpt>
      <trkpt lat="47.51142" lon="-2.83929">
        <ele>30</ele>
        <time>2018-05-03T10:12:04Z</time>
      </trkpt>
      <trkpt lat="47.51132" lon="-2.83922">
        <ele>30</ele>
        <time>2018-05-03T10:13:04Z</time>
      </trkpt>
      <trkpt lat="47.51113" lon="-2.83937">
        <ele>30</ele>
        <time>2018-05-03T10:14:04Z</time>
      </trkpt>
      <trkpt lat="47.51075" lon="-2.83957">
        <ele>30</ele>
        <time>2018-05-03T10:15:04Z</time>
      </trkpt>
      <trkpt lat="47.51018" lon="-2.83994">
        <ele>29</ele>
        <time>2018-05-03T10:16:04Z</time>
      </trkpt>
      <trkpt lat="47.51014" lon="-2.83993">
        <ele>29</ele>
        <time>2018-05-03T10:17:04Z</time>
      </trkpt>
      <trkpt lat="47.5101" lon="-2.84009">
        <ele>29</ele>
        <time>2018-05-03T10:18:04Z</time>
      </trkpt>
      <trkpt lat="47.50996" lon="-2.8403">
        <ele>29</ele>
        <time>2018-05-03T10:19:04Z</time>
      </trkpt>
      <trkpt lat="47.50988" lon="-2.84025">
        <ele>29</ele>
        <time>2018-05-03T10:20:04Z</time>
      </trkpt>
      <trkpt lat="47.50972" lon="-2.84024">
        <ele>30</ele>
        <time>2018-05-03T10:21:04Z</time>
      </trkpt>
      <trkpt lat="47.50929" lon="-2.84047">
        <ele>31</ele>
        <time>2018-05-03T10:22:04Z</time>
      </trkpt>
      <trkpt lat="47.50909" lon="-2.84065">
        <ele>31</ele>
        <time>2018-05-03T10:23:04Z</time>
      </trkpt>
      <trkpt lat="47.50874" lon="-2.84112">
        <ele>32</ele>
        <time>2018-05-03T10:24:04Z</time>
      </trkpt>
      <trkpt lat="47.50857" lon="-2.84125">
        <ele>33</ele>
        <time>2018-05-03T10:25:04Z</time>
      </trkpt>
      <trkpt lat="47.50808" lon="-2.84147">
        <ele>35</ele>
        <time>2018-05-03T10:26:04Z</time>
      </trkpt>
      <trkpt lat="47.50763" lon="-2.84161">
        <ele>36</ele>
        <time>2018-05-03T10:27:04Z</time>
      </trkpt>
      <trkpt lat="47.50729" lon="-2.84174">
        <ele>37</ele>
        <time>2018-05-03T10:28:04Z</time>
      </trkpt>
      <trkpt lat="47.50628" lon="-2.84251">
        <ele>39</ele>
        <time>2018-05-03T10:29:04Z</time>
      </trkpt>
      <trkpt lat="47.50602" lon="-2.84231">
        <ele>38</ele>
        <time>2018-05-03T10:30:04Z</time>
      </trkpt>
      <trkpt lat="47.50578" lon="-2.84207">
        <ele>38</ele>
        <time>2018-05-03T10:31:04Z</time>
      </trkpt>
      <trkpt lat="47.50549" lon="-2.84201">
        <ele>38</ele>
        <time>2018-05-03T10:32:04Z</time>
      </trkpt>
      <trkpt lat="47.50524" lon="-2.84203">
        <ele>39</ele>
        <time>2018-05-03T10:33:04Z</time>
      </trkpt>
      <trkpt lat="47.50517" lon="-2.84194">
        <ele>39</ele>
        <time>2018-05-03T10:34:04Z</time>
      </trkpt>
      <trkpt lat="47.50518" lon="-2.84213">
        <ele>39</ele>
        <time>2018-05-03T10:35:04Z</time>
      </trkpt>
      <trkpt lat="47.50477" lon="-2.84236">
        <ele>40</ele>
        <time>2018-05-03T10:36:04Z</time>
      </trkpt>
      <trkpt lat="47.50293" lon="-2.84379">
        <ele>38</ele>
        <time>2018-05-03T10:37:04Z</time>
      </trkpt>
      <trkpt lat="47.50288" lon="-2.84388">
        <ele>38</ele>
        <time>2018-05-03T10:38:04Z</time>
      </trkpt>
      <trkpt lat="47.50215" lon="-2.8444">
        <ele>38</ele>
        <time>2018-05-03T10:39:04Z</time>
      </trkpt>
      <trkpt lat="47.50163" lon="-2.84405">
        <ele>38</ele>
        <time>2018-05-03T10:40:04Z</time>
      </trkpt>
      <trkpt lat="47.50144" lon="-2.84383">
        <ele>38</ele>
        <time>2018-05-03T10:41:04Z</time>
      </trkpt>
      <trkpt lat="47.50137" lon="-2.84458">
        <ele>37</ele>
        <time>2018-05-03T10:42:04Z</time>
      </trkpt>
      <trkpt lat="47.5013" lon="-2.84477">
        <ele>37</ele>
        <time>2018-05-03T10:43:04Z</time>
      </trkpt>
      <trkpt lat="47.50117" lon="-2.84487">
        <ele>37</ele>
        <time>2018-05-03T10:44:04Z</time>
      </trkpt>
      <trkpt lat="47.50072" lon="-2.84507">
        <ele>37</ele>
        <time>2018-05-03T10:45:04Z</time>
      </trkpt>
      <trkpt lat="47.50061" lon="-2.84527">
        <ele>37</ele>
        <time>2018-05-03T10:46:04Z</time>
      </trkpt>
      <trkpt lat="47.50055" lon="-2.84556">
        <ele>36</ele>
        <time>2018-05-03T10:47:04Z</time>
      </trkpt>
      <trkpt lat="47.50053" lon="-2.84578">
        <ele>36</ele>
        <time>2018-05-03T10:48:04Z</time>
      </trkpt>
      <trkpt lat="47.5006" lon="-2.84665">
        <ele>35</ele>
        <time>2018-05-03T10:49:04Z</time>
      </trkpt>
      <trkpt lat="47.5007" lon="-2.84752">
        <ele>35</ele>
        <time>2018-05-03T10:50:04Z</time>
      </trkpt>
      <trkpt lat="47.5007" lon="-2.84789">
        <ele>34</ele>
        <time>2018-05-03T10:51:04Z</time>
      </trkpt>
      <trkpt lat="47.50064" lon="-2.84877">
        <ele>31</ele>
        <time>2018-05-03T10:52:04Z</time>
      </trkpt>
      <trkpt lat="47.50052" lon="-2.85005">
        <ele>25</ele>
        <time>2018-05-03T10:53:04Z</time>
      </trkpt>
      <trkpt lat="47.50052" lon="-2.85005">
        <ele>25</ele>
        <time>2018-05-03T10:54:04Z</time>
      </trkpt>
      <trkpt lat="47.50064" lon="-2.84877">
        <ele>31</ele>
        <time>2018-05-03T10:55:04Z</time>
      </trkpt>
      <trkpt lat="47.5007" lon="-2.84789">
        <ele>34</ele>
        <time>2018-05-03T10:56:04Z</time>
      </trkpt>
      <trkpt lat="47.5007" lon="-2.84752">
        <ele>35</ele>
        <time>2018-05-03T10:57:04Z</time>
      </trkpt>
      <trkpt lat="47.5006" lon="-2.84665">
        <ele>35</ele>
        <time>2018-05-03T10:58:04Z</time>
      </trkpt>
      <trkpt lat="47.50053" lon="-2.84578">
        <ele>36</ele>
        <time>2018-05-03T10:59:04Z</time>
      </trkpt>
      <trkpt lat="47.50055" lon="-2.84556">
        <ele>36</ele>
        <time>2018-05-03T11:00:04Z</time>
      </trkpt>
      <trkpt lat="47.50061" lon="-2.84527">
        <ele>37</ele>
        <time>2018-05-03T11:01:04Z</time>
      </trkpt>
      <trkpt lat="47.50072" lon="-2.84507">
        <ele>37</ele>
        <time>2018-05-03T11:02:04Z</time>
      </trkpt>
      <trkpt lat="47.50117" lon="-2.84487">
        <ele>37</ele>
        <time>2018-05-03T11:03:04Z</time>
      </trkpt>
      <trkpt lat="47.5013" lon="-2.84477">
        <ele>37</ele>
        <time>2018-05-03T11:04:04Z</time>
      </trkpt>
      <trkpt lat="47.50137" lon="-2.84458">
        <ele>37</ele>
        <time>2018-05-03T11:05:04Z</time>
      </trkpt>
      <trkpt lat="47.50152" lon="-2.84327">
        <ele>38</ele>
        <time>2018-05-03T11:06:04Z</time>
      </trkpt>
      <trkpt lat="47.50173" lon="-2.8424">
        <ele>38</ele>
        <time>2018-05-03T11:07:04Z</time>
      </trkpt>
      <trkpt lat="47.50176" lon="-2.84216">
        <ele>38</ele>
        <time>2018-05-03T11:08:04Z</time>
      </trkpt>
      <trkpt lat="47.50163" lon="-2.84075">
        <ele>37</ele>
        <time>2018-05-03T11:09:04Z</time>
      </trkpt>
      <trkpt lat="47.50157" lon="-2.84029">
        <ele>36</ele>
        <time>2018-05-03T11:10:04Z</time>
      </trkpt>
      <trkpt lat="47.50142" lon="-2.84001">
        <ele>36</ele>
        <time>2018-05-03T11:11:04Z</time>
      </trkpt>
      <trkpt lat="47.50126" lon="-2.83989">
        <ele>36</ele>
        <time>2018-05-03T11:12:04Z</time>
      </trkpt>
      <trkpt lat="47.5013" lon="-2.83975">
        <ele>36</ele>
        <time>2018-05-03T11:13:04Z</time>
      </trkpt>
      <trkpt lat="47.50152" lon="-2.83954">
        <ele>36</ele>
        <time>2018-05-03T11:14:04Z</time>
      </trkpt>
      <trkpt lat="47.50103" lon="-2.8388">
        <ele>37</ele>
        <time>2018-05-03T11:15:04Z</time>
      </trkpt>
      <trkpt lat="47.50094" lon="-2.83863">
        <ele>37</ele>
        <time>2018-05-03T11:16:04Z</time>
      </trkpt>
      <trkpt lat="47.50089" lon="-2.83844">
        <ele>37</ele>
        <time>2018-05-03T11:17:04Z</time>
      </trkpt>
      <trkpt lat="47.50085" lon="-2.83812">
        <ele>37</ele>
        <time>2018-05-03T11:18:04Z</time>
      </trkpt>
      <trkpt lat="47.50071" lon="-2.83769">
        <ele>37</ele>
        <time>2018-05-03T11:19:04Z</time>
      </trkpt>
      <trkpt lat="47.50048" lon="-2.83708">
        <ele>35</ele>
        <time>2018-05-03T11:20:04Z</time>
      </trkpt>
      <trkpt lat="47.50017" lon="-2.8363">
        <ele>33</ele>
        <time>2018-05-03T11:21:04Z</time>
      </trkpt>
      <trkpt lat="47.50013" lon="-2.8363">
        <ele>33</ele>
        <time>2018-05-03T11:22:04Z</time>
      </trkpt>
      <trkpt lat="47.50009" lon="-2.83641">
        <ele>33</ele>
        <time>2018-05-03T11:23:04Z</time>
      </trkpt>
      <trkpt lat="47.50007" lon="-2.83652">
        <ele>33</ele>
        <time>2018-05-03T11:24:04Z</time>
      </trkpt>
      <trkpt lat="47.49991" lon="-2.83607">
        <ele>32</ele>
        <time>2018-05-03T11:25:04Z</time>
      </trkpt>
      <trkpt lat="47.49988" lon="-2.83583">
        <ele>31</ele>
        <time>2018-05-03T11:26:04Z</time>
      </trkpt>
      <trkpt lat="47.49981" lon="-2.83571">
        <ele>31</ele>
        <time>2018-05-03T11:27:04Z</time>
      </trkpt>
      <trkpt lat="47.49966" lon="-2.83561">
        <ele>31</ele>
        <time>2018-05-03T11:28:04Z</time>
      </trkpt>
      <trkpt lat="47.49958" lon="-2.83547">
        <ele>31</ele>
        <time>2018-05-03T11:29:04Z</time>
      </trkpt>
      <trkpt lat="47.49954" lon="-2.83533">
        <ele>31</ele>
        <time>2018-05-03T11:30:04Z</time>
      </trkpt>
      <trkpt lat="47.49954" lon="-2.83489">
        <ele>29</ele>
        <time>2018-05-03T11:31:04Z</time>
      </trkpt>
      <trkpt lat="47.49981" lon="-2.83354">
        <ele>29</ele>
        <time>2018-05-03T11:32:04Z</time>
      </trkpt>
      <trkpt lat="47.49955" lon="-2.83314">
        <ele>30</ele>
        <time>2018-05-03T11:33:04Z</time>
      </trkpt>
      <trkpt lat="47.49937" lon="-2.83297">
        <ele>30</ele>
        <time>2018-05-03T11:34:04Z</time>
      </trkpt>
      <trkpt lat="47.4992" lon="-2.83288">
        <ele>30</ele>
        <time>2018-05-03T11:35:04Z</time>
      </trkpt>
      <trkpt lat="47.49867" lon="-2.83271">
        <ele>31</ele>
        <time>2018-05-03T11:36:04Z</time>
      </trkpt>
      <trkpt lat="47.49809" lon="-2.83236">
        <ele>32</ele>
        <time>2018-05-03T11:37:04Z</time>
      </trkpt>
      <trkpt lat="47.49732" lon="-2.83199">
        <ele>32</ele>
        <time>2018-05-03T11:38:04Z</time>
      </trkpt>
      <trkpt lat="47.49722" lon="-2.83193">
        <ele>31</ele>
        <time>2018-05-03T11:39:04Z</time>
      </trkpt>
      <trkpt lat="47.49715" lon="-2.83177">
        <ele>31</ele>
        <time>2018-05-03T11:40:04Z</time>
      </trkpt>
      <trkpt lat="47.49711" lon="-2.83159">
        <ele>31</ele>
        <time>2018-05-03T11:41:04Z</time>
      </trkpt>
      <trkpt lat="47.49708" lon="-2.83136">
        <ele>30</ele>
        <time>2018-05-03T11:42:04Z</time>
      </trkpt>
      <trkpt lat="47.49684" lon="-2.8314">
        <ele>29</ele>
        <time>2018-05-03T11:43:04Z</time>
      </trkpt>
      <trkpt lat="47.49647" lon="-2.83153">
        <ele>27</ele>
        <time>2018-05-03T11:44:04Z</time>
      </trkpt>
      <trkpt lat="47.49563" lon="-2.83191">
        <ele>22</ele>
        <time>2018-05-03T11:45:04Z</time>
      </trkpt>
      <trkpt lat="47.49532" lon="-2.832">
        <ele>21</ele>
        <time>2018-05-03T11:46:04Z</time>
      </trkpt>
      <trkpt lat="47.49517" lon="-2.83199">
        <ele>21</ele>
        <time>2018-05-03T11:47:04Z</time>
      </trkpt>
      <trkpt lat="47.49471" lon="-2.83187">
        <ele>19</ele>
        <time>2018-05-03T11:48:04Z</time>
      </trkpt>
      <trkpt lat="47.49453" lon="-2.83187">
        <ele>18</ele>
        <time>2018-05-03T11:49:04Z</time>
      </trkpt>
      <trkpt lat="47.49413" lon="-2.83193">
        <ele>17</ele>
        <time>2018-05-03T11:50:04Z</time>
      </trkpt>
      <trkpt lat="47.4936" lon="-2.83206">
        <ele>15</ele>
        <time>2018-05-03T11:51:04Z</time>
      </trkpt>
      <trkpt lat="47.49349" lon="-2.83206">
        <ele>14</ele>
        <time>2018-05-03T11:52:04Z</time>
      </trkpt>
      <trkpt lat="47.49337" lon="-2.83198">
        <ele>14</ele>
        <time>2018-05-03T11:53:04Z</time>
      </trkpt>
      <trkpt lat="47.49331" lon="-2.83188">
        <ele>13</ele>
        <time>2018-05-03T11:54:04Z</time>
      </trkpt>
      <trkpt lat="47.4932" lon="-2.83181">
        <ele>12</ele>
        <time>2018-05-03T11:55:04Z</time>
      </trkpt>
      <trkpt lat="47.49314" lon="-2.83188">
        <ele>11</ele>
        <time>2018-05-03T11:56:04Z</time>
      </trkpt>
      <trkpt lat="47.49257" lon="-2.83402">
        <ele>3</ele>
        <time>2018-05-03T11:57:04Z</time>
      </trkpt>
      <trkpt lat="47.49258" lon="-2.83418">
        <ele>3</ele>
        <time>2018-05-03T11:58:04Z</time>
      </trkpt>
      <trkpt lat="47.49258" lon="-2.83418">
        <ele>3</ele>
        <time>2018-05-03T11:59:04Z</time>
      </trkpt>
      <trkpt lat="47.49257" lon="-2.83402">
        <ele>3</ele>
        <time>2018-05-03T12:00:04Z</time>
      </trkpt>
      <trkpt lat="47.49314" lon="-2.83188">
        <ele>11</ele>
        <time>2018-05-03T12:01:04Z</time>
      </trkpt>
      <trkpt lat="47.4932" lon="-2.83181">
        <ele>12</ele>
        <time>2018-05-03T12:02:04Z</time>
      </trkpt>
      <trkpt lat="47.49331" lon="-2.83188">
        <ele>13</ele>
        <time>2018-05-03T12:03:04Z</time>
      </trkpt>
      <trkpt lat="47.49327" lon="-2.83175">
        <ele>13</ele>
        <time>2018-05-03T12:04:04Z</time>
      </trkpt>
      <trkpt lat="47.49321" lon="-2.83082">
        <ele>12</ele>
        <time>2018-05-03T12:05:04Z</time>
      </trkpt>
      <trkpt lat="47.49365" lon="-2.83075">
        <ele>16</ele>
        <time>2018-05-03T12:06:04Z</time>
      </trkpt>
      <trkpt lat="47.4938" lon="-2.8307">
        <ele>17</ele>
        <time>2018-05-03T12:07:04Z</time>
      </trkpt>
      <trkpt lat="47.49431" lon="-2.8303">
        <ele>20</ele>
        <time>2018-05-03T12:08:04Z</time>
      </trkpt>
      <trkpt lat="47.49464" lon="-2.83025">
        <ele>21</ele>
        <time>2018-05-03T12:09:04Z</time>
      </trkpt>
      <trkpt lat="47.49478" lon="-2.83021">
        <ele>21</ele>
        <time>2018-05-03T12:10:04Z</time>
      </trkpt>
      <trkpt lat="47.49489" lon="-2.83009">
        <ele>22</ele>
        <time>2018-05-03T12:11:04Z</time>
      </trkpt>
      <trkpt lat="47.49512" lon="-2.82968">
        <ele>23</ele>
        <time>2018-05-03T12:12:04Z</time>
      </trkpt>
      <trkpt lat="47.49536" lon="-2.82929">
        <ele>25</ele>
        <time>2018-05-03T12:13:04Z</time>
      </trkpt>
      <trkpt lat="47.49553" lon="-2.82909">
        <ele>25</ele>
        <time>2018-05-03T12:14:04Z</time>
      </trkpt>
      <trkpt lat="47.49565" lon="-2.82899">
        <ele>25</ele>
        <time>2018-05-03T12:15:04Z</time>
      </trkpt>
      <trkpt lat="47.49612" lon="-2.82869">
        <ele>27</ele>
        <time>2018-05-03T12:16:04Z</time>
      </trkpt>
      <trkpt lat="47.49627" lon="-2.82855">
        <ele>28</ele>
        <time>2018-05-03T12:17:04Z</time>
      </trkpt>
      <trkpt lat="47.49634" lon="-2.82846">
        <ele>28</ele>
        <time>2018-05-03T12:18:04Z</time>
      </trkpt>
      <trkpt lat="47.49621" lon="-2.82838">
        <ele>28</ele>
        <time>2018-05-03T12:19:04Z</time>
      </trkpt>
      <trkpt lat="47.4961" lon="-2.82826">
        <ele>28</ele>
        <time>2018-05-03T12:20:04Z</time>
      </trkpt>
      <trkpt lat="47.49604" lon="-2.82812">
        <ele>28</ele>
        <time>2018-05-03T12:21:04Z</time>
      </trkpt>
      <trkpt lat="47.49578" lon="-2.82717">
        <ele>31</ele>
        <time>2018-05-03T12:22:04Z</time>
      </trkpt>
      <trkpt lat="47.49569" lon="-2.82702">
        <ele>31</ele>
        <time>2018-05-03T12:23:04Z</time>
      </trkpt>
      <trkpt lat="47.4953" lon="-2.82658">
        <ele>31</ele>
        <time>2018-05-03T12:24:04Z</time>
      </trkpt>
      <trkpt lat="47.49507" lon="-2.82616">
        <ele>30</ele>
        <time>2018-05-03T12:25:04Z</time>
      </trkpt>
      <trkpt lat="47.49465" lon="-2.82516">
        <ele>26</ele>
        <time>2018-05-03T12:26:04Z</time>
      </trkpt>
      <trkpt lat="47.49431" lon="-2.82428">
        <ele>23</ele>
        <time>2018-05-03T12:27:04Z</time>
      </trkpt>
      <trkpt lat="47.49409" lon="-2.82378">
        <ele>23</ele>
        <time>2018-05-03T12:28:04Z</time>
      </trkpt>
      <trkpt lat="47.494" lon="-2.8235">
        <ele>25</ele>
        <time>2018-05-03T12:29:04Z</time>
      </trkpt>
      <trkpt lat="47.49374" lon="-2.82227">
        <ele>27</ele>
        <time>2018-05-03T12:30:04Z</time>
      </trkpt>
      <trkpt lat="47.49353" lon="-2.82138">
        <ele>27</ele>
        <time>2018-05-03T12:31:04Z</time>
      </trkpt>
      <trkpt lat="47.49352" lon="-2.82101">
        <ele>27</ele>
        <time>2018-05-03T12:32:04Z</time>
      </trkpt>
      <trkpt lat="47.49384" lon="-2.82071">
        <ele>28</ele>
        <time>2018-05-03T12:33:04Z</time>
      </trkpt>
      <trkpt lat="47.4942" lon="-2.82053">
        <ele>29</ele>
        <time>2018-05-03T12:34:04Z</time>
      </trkpt>
      <trkpt lat="47.49385" lon="-2.81927">
        <ele>27</ele>
        <time>2018-05-03T12:35:04Z</time>
      </trkpt>
      <trkpt lat="47.49373" lon="-2.81846">
        <ele>27</ele>
        <time>2018-05-03T12:36:04Z</time>
      </trkpt>
      <trkpt lat="47.49324" lon="-2.81704">
        <ele>23</ele>
        <time>2018-05-03T12:37:04Z</time>
      </trkpt>
      <trkpt lat="47.49292" lon="-2.81698">
        <ele>23</ele>
        <time>2018-05-03T12:38:04Z</time>
      </trkpt>
      <trkpt lat="47.49326" lon="-2.81514">
        <ele>25</ele>
        <time>2018-05-03T12:39:04Z</time>
      </trkpt>
      <trkpt lat="47.49341" lon="-2.81465">
        <ele>26</ele>
        <time>2018-05-03T12:40:04Z</time>
      </trkpt>
      <trkpt lat="47.49362" lon="-2.81412">
        <ele>27</ele>
        <time>2018-05-03T12:41:04Z</time>
      </trkpt>
      <trkpt lat="47.49365" lon="-2.8138">
        <ele>27</ele>
        <time>2018-05-03T12:42:04Z</time>
      </trkpt>
      <trkpt lat="47.49359" lon="-2.81352">
        <ele>27</ele>
        <time>2018-05-03T12:43:04Z</time>
      </trkpt>
      <trkpt lat="47.49348" lon="-2.81323">
        <ele>26</ele>
        <time>2018-05-03T12:44:04Z</time>
      </trkpt>
      <trkpt lat="47.49339" lon="-2.8131">
        <ele>26</ele>
        <time>2018-05-03T12:45:04Z</time>
      </trkpt>
      <trkpt lat="47.49335" lon="-2.81301">
        <ele>26</ele>
        <time>2018-05-03T12:46:04Z</time>
      </trkpt>
      <trkpt lat="47.49335" lon="-2.8129">
        <ele>26</ele>
        <time>2018-05-03T12:47:04Z</time>
      </trkpt>
      <trkpt lat="47.49339" lon="-2.81284">
        <ele>26</ele>
        <time>2018-05-03T12:48:04Z</time>
      </trkpt>
      <trkpt lat="47.49344" lon="-2.81279">
        <ele>26</ele>
        <time>2018-05-03T12:49:04Z</time>
      </trkpt>
      <trkpt lat="47.49424" lon="-2.81223">
        <ele>29</ele>
        <time>2018-05-03T12:50:04Z</time>
      </trkpt>
      <trkpt lat="47.49455" lon="-2.81199">
        <ele>31</ele>
        <time>2018-05-03T12:51:04Z</time>
      </trkpt>
      <trkpt lat="47.49338" lon="-2.80977">
        <ele>29</ele>
        <time>2018-05-03T12:52:04Z</time>
      </trkpt>
      <trkpt lat="47.493" lon="-2.80917">
        <ele>28</ele>
        <time>2018-05-03T12:53:04Z</time>
      </trkpt>
      <trkpt lat="47.49169" lon="-2.80724">
        <ele>14</ele>
        <time>2018-05-03T12:54:04Z</time>
      </trkpt>
      <trkpt lat="47.4916" lon="-2.80704">
        <ele>13</ele>
        <time>2018-05-03T12:55:04Z</time>
      </trkpt>
      <trkpt lat="47.49154" lon="-2.80678">
        <ele>12</ele>
        <time>2018-05-03T12:56:04Z</time>
      </trkpt>
      <trkpt lat="47.49116" lon="-2.8046">
        <ele>7</ele>
        <time>2018-05-03T12:57:04Z</time>
      </trkpt>
      <trkpt lat="47.49114" lon="-2.80436">
        <ele>7</ele>
        <time>2018-05-03T12:58:04Z</time>
      </trkpt>
      <trkpt lat="47.49115" lon="-2.80418">
        <ele>7</ele>
        <time>2018-05-03T12:59:04Z</time>
      </trkpt>
      <trkpt lat="47.49123" lon="-2.80387">
        <ele>7</ele>
        <time>2018-05-03T13:00:04Z</time>
      </trkpt>
      <trkpt lat="47.49159" lon="-2.80307">
        <ele>8</ele>
        <time>2018-05-03T13:01:04Z</time>
      </trkpt>
      <trkpt lat="47.49298" lon="-2.79988">
        <ele>15</ele>
        <time>2018-05-03T13:02:04Z</time>
      </trkpt>
      <trkpt lat="47.49165" lon="-2.80024">
        <ele>9</ele>
        <time>2018-05-03T13:03:04Z</time>
      </trkpt>
      <trkpt lat="47.49053" lon="-2.80086">
        <ele>6</ele>
        <time>2018-05-03T13:04:04Z</time>
      </trkpt>
      <trkpt lat="47.49029" lon="-2.80092">
        <ele>5</ele>
        <time>2018-05-03T13:05:04Z</time>
      </trkpt>
      <trkpt lat="47.49009" lon="-2.80094">
        <ele>5</ele>
        <time>2018-05-03T13:06:04Z</time>
      </trkpt>
      <trkpt lat="47.48989" lon="-2.80087">
        <ele>5</ele>
        <time>2018-05-03T13:07:04Z</time>
      </trkpt>
      <trkpt lat="47.48965" lon="-2.80073">
        <ele>5</ele>
        <time>2018-05-03T13:08:04Z</time>
      </trkpt>
      <trkpt lat="47.48953" lon="-2.80063">
        <ele>5</ele>
        <time>2018-05-03T13:09:04Z</time>
      </trkpt>
      <trkpt lat="47.48947" lon="-2.80043">
        <ele>5</ele>
        <time>2018-05-03T13:10:04Z</time>
      </trkpt>
      <trkpt lat="47.48937" lon="-2.79997">
        <ele>5</ele>
        <time>2018-05-03T13:11:04Z</time>
      </trkpt>
      <trkpt lat="47.48936" lon="-2.79974">
        <ele>5</ele>
        <time>2018-05-03T13:12:04Z</time>
      </trkpt>
      <trkpt lat="47.48922" lon="-2.79972">
        <ele>4</ele>
        <time>2018-05-03T13:13:04Z</time>
      </trkpt>
      <trkpt lat="47.48883" lon="-2.79937">
        <ele>5</ele>
        <time>2018-05-03T13:14:04Z</time>
      </trkpt>
      <trkpt lat="47.48848" lon="-2.79914">
        <ele>5</ele>
        <time>2018-05-03T13:15:04Z</time>
      </trkpt>
      <trkpt lat="47.48825" lon="-2.79905">
        <ele>5</ele>
        <time>2018-05-03T13:16:04Z</time>
      </trkpt>
      <trkpt lat="47.48799" lon="-2.79904">
        <ele>5</ele>
        <time>2018-05-03T13:17:04Z</time>
      </trkpt>
      <trkpt lat="47.48785" lon="-2.79909">
        <ele>5</ele>
        <time>2018-05-03T13:18:04Z</time>
      </trkpt>
      <trkpt lat="47.48748" lon="-2.79917">
        <ele>5</ele>
        <time>2018-05-03T13:19:04Z</time>
      </trkpt>
      <trkpt lat="47.48732" lon="-2.79913">
        <ele>5</ele>
        <time>2018-05-03T13:20:04Z</time>
      </trkpt>
      <trkpt lat="47.48701" lon="-2.79895">
        <ele>4</ele>
        <time>2018-05-03T13:21:04Z</time>
      </trkpt>
      <trkpt lat="47.48683" lon="-2.7988">
        <ele>5</ele>
        <time>2018-05-03T13:22:04Z</time>
      </trkpt>
      <trkpt lat="47.48645" lon="-2.79789">
        <ele>6</ele>
        <time>2018-05-03T13:23:04Z</time>
      </trkpt>
      <trkpt lat="47.48645" lon="-2.79789">
        <ele>6</ele>
        <time>2018-05-03T13:24:04Z</time>
      </trkpt>
      <trkpt lat="47.48643" lon="-2.79783">
        <ele>6</ele>
        <time>2018-05-03T13:25:04Z</time>
      </trkpt>
      <trkpt lat="47.4864" lon="-2.79761">
        <ele>6</ele>
        <time>2018-05-03T13:26:04Z</time>
      </trkpt>
      <trkpt lat="47.48638" lon="-2.79724">
        <ele>6</ele>
        <time>2018-05-03T13:27:04Z</time>
      </trkpt>
      <trkpt lat="47.48631" lon="-2.79659">
        <ele>6</ele>
        <time>2018-05-03T13:28:04Z</time>
      </trkpt>
      <trkpt lat="47.48622" lon="-2.79597">
        <ele>6</ele>
        <time>2018-05-03T13:29:04Z</time>
      </trkpt>
      <trkpt lat="47.4862" lon="-2.7955">
        <ele>6</ele>
        <time>2018-05-03T13:30:04Z</time>
      </trkpt>
      <trkpt lat="47.48625" lon="-2.79495">
        <ele>7</ele>
        <time>2018-05-03T13:31:04Z</time>
      </trkpt>
      <trkpt lat="47.48644" lon="-2.79505">
        <ele>6</ele>
        <time>2018-05-03T13:32:04Z</time>
      </trkpt>
      <trkpt lat="47.48701" lon="-2.79518">
        <ele>6</ele>
        <time>2018-05-03T13:33:04Z</time>
      </trkpt>
      <trkpt lat="47.48747" lon="-2.7952">
        <ele>7</ele>
        <time>2018-05-03T13:34:04Z</time>
      </trkpt>
      <trkpt lat="47.48781" lon="-2.79514">
        <ele>7</ele>
        <time>2018-05-03T13:35:04Z</time>
      </trkpt>
      <trkpt lat="47.48803" lon="-2.79513">
        <ele>7</ele>
        <time>2018-05-03T13:36:04Z</time>
      </trkpt>
      <trkpt lat="47.4887" lon="-2.7954">
        <ele>7</ele>
        <time>2018-05-03T13:37:04Z</time>
      </trkpt>
      <trkpt lat="47.49" lon="-2.79589">
        <ele>7</ele>
        <time>2018-05-03T13:38:04Z</time>
      </trkpt>
      <trkpt lat="47.4901" lon="-2.79523">
        <ele>6</ele>
        <time>2018-05-03T13:39:04Z</time>
      </trkpt>
      <trkpt lat="47.49014" lon="-2.79459">
        <ele>6</ele>
        <time>2018-05-03T13:40:04Z</time>
      </trkpt>
      <trkpt lat="47.49021" lon="-2.79416">
        <ele>5</ele>
        <time>2018-05-03T13:41:04Z</time>
      </trkpt>
      <trkpt lat="47.49039" lon="-2.79424">
        <ele>6</ele>
        <time>2018-05-03T13:42:04Z</time>
      </trkpt>
      <trkpt lat="47.49054" lon="-2.79422">
        <ele>6</ele>
        <time>2018-05-03T13:43:04Z</time>
      </trkpt>
      <trkpt lat="47.49164" lon="-2.79426">
        <ele>9</ele>
        <time>2018-05-03T13:44:04Z</time>
      </trkpt>
      <trkpt lat="47.49256" lon="-2.79398">
        <ele>13</ele>
        <time>2018-05-03T13:45:04Z</time>
      </trkpt>
      <trkpt lat="47.49276" lon="-2.79383">
        <ele>14</ele>
        <time>2018-05-03T13:46:04Z</time>
      </trkpt>
      <trkpt lat="47.49305" lon="-2.79325">
        <ele>15</ele>
        <time>2018-05-03T13:47:04Z</time>
      </trkpt>
      <trkpt lat="47.49313" lon="-2.79312">
        <ele>15</ele>
        <time>2018-05-03T13:48:04Z</time>
      </trkpt>
      <trkpt lat="47.49326" lon="-2.79306">
        <ele>16</ele>
        <time>2018-05-03T13:49:04Z</time>
      </trkpt>
      <trkpt lat="47.49336" lon="-2.79306">
        <ele>17</ele>
        <time>2018-05-03T13:50:04Z</time>
      </trkpt>
      <trkpt lat="47.4935" lon="-2.79318">
        <ele>19</ele>
        <time>2018-05-03T13:51:04Z</time>
      </trkpt>
      <trkpt lat="47.49359" lon="-2.79305">
        <ele>19</ele>
        <time>2018-05-03T13:52:04Z</time>
      </trkpt>
      <trkpt lat="47.49375" lon="-2.79238">
        <ele>16</ele>
        <time>2018-05-03T13:53:04Z</time>
      </trkpt>
      <trkpt lat="47.49379" lon="-2.79189">
        <ele>15</ele>
        <time>2018-05-03T13:54:04Z</time>
      </trkpt>
      <trkpt lat="47.49379" lon="-2.79125">
        <ele>12</ele>
        <time>2018-05-03T13:55:04Z</time>
      </trkpt>
      <trkpt lat="47.49389" lon="-2.79056">
        <ele>11</ele>
        <time>2018-05-03T13:56:04Z</time>
      </trkpt>
      <trkpt lat="47.49386" lon="-2.79034">
        <ele>10</ele>
        <time>2018-05-03T13:57:04Z</time>
      </trkpt>
      <trkpt lat="47.4938" lon="-2.7901">
        <ele>10</ele>
        <time>2018-05-03T13:58:04Z</time>
      </trkpt>
      <trkpt lat="47.4937" lon="-2.78983">
        <ele>9</ele>
        <time>2018-05-03T13:59:04Z</time>
      </trkpt>
      <trkpt lat="47.49368" lon="-2.78966">
        <ele>9</ele>
        <time>2018-05-03T14:00:04Z</time>
      </trkpt>
      <trkpt lat="47.49369" lon="-2.78952">
        <ele>9</ele>
        <time>2018-05-03T14:01:04Z</time>
      </trkpt>
      <trkpt lat="47.49372" lon="-2.7894">
        <ele>9</ele>
        <time>2018-05-03T14:02:04Z</time>
      </trkpt>
      <trkpt lat="47.49385" lon="-2.78919">
        <ele>9</ele>
        <time>2018-05-03T14:03:04Z</time>
      </trkpt>
      <trkpt lat="47.49402" lon="-2.78901">
        <ele>9</ele>
        <time>2018-05-03T14:04:04Z</time>
      </trkpt>
      <trkpt lat="47.49429" lon="-2.78882">
        <ele>9</ele>
        <time>2018-05-03T14:05:04Z</time>
      </trkpt>
      <trkpt lat="47.49516" lon="-2.78853">
        <ele>9</ele>
        <time>2018-05-03T14:06:04Z</time>
      </trkpt>
      <trkpt lat="47.49648" lon="-2.78813">
        <ele>11</ele>
        <time>2018-05-03T14:07:04Z</time>
      </trkpt>
      <trkpt lat="47.49668" lon="-2.78788">
        <ele>12</ele>
        <time>2018-05-03T14:08:04Z</time>
      </trkpt>
      <trkpt lat="47.49702" lon="-2.78731">
        <ele>13</ele>
        <time>2018-05-03T14:09:04Z</time>
      </trkpt>
      <trkpt lat="47.4974" lon="-2.7868">
        <ele>13</ele>
        <time>2018-05-03T14:10:04Z</time>
      </trkpt>
      <trkpt lat="47.49747" lon="-2.78665">
        <ele>13</ele>
        <time>2018-05-03T14:11:04Z</time>
      </trkpt>
      <trkpt lat="47.4976" lon="-2.78613">
        <ele>13</ele>
        <time>2018-05-03T14:12:04Z</time>
      </trkpt>
      <trkpt lat="47.49787" lon="-2.78522">
        <ele>14</ele>
        <time>2018-05-03T14:13:04Z</time>
      </trkpt>
      <trkpt lat="47.49822" lon="-2.7844">
        <ele>16</ele>
        <time>2018-05-03T14:14:04Z</time>
      </trkpt>
      <trkpt lat="47.49838" lon="-2.78415">
        <ele>16</ele>
        <time>2018-05-03T14:15:04Z</time>
      </trkpt>
      <trkpt lat="47.49854" lon="-2.78395">
        <ele>17</ele>
        <time>2018-05-03T14:16:04Z</time>
      </trkpt>
      <trkpt lat="47.49865" lon="-2.78376">
        <ele>18</ele>
        <time>2018-05-03T14:17:04Z</time>
      </trkpt>
      <trkpt lat="47.49891" lon="-2.78344">
        <ele>19</ele>
        <time>2018-05-03T14:18:04Z</time>
      </trkpt>
      <trkpt lat="47.49979" lon="-2.7825">
        <ele>24</ele>
        <time>2018-05-03T14:19:04Z</time>
      </trkpt>
      <trkpt lat="47.50106" lon="-2.7809">
        <ele>28</ele>
        <time>2018-05-03T14:20:04Z</time>
      </trkpt>
      <trkpt lat="47.50116" lon="-2.78072">
        <ele>28</ele>
        <time>2018-05-03T14:21:04Z</time>
      </trkpt>
      <trkpt lat="47.50141" lon="-2.78005">
        <ele>28</ele>
        <time>2018-05-03T14:22:04Z</time>
      </trkpt>
      <trkpt lat="47.50174" lon="-2.77887">
        <ele>31</ele>
        <time>2018-05-03T14:23:04Z</time>
      </trkpt>
      <trkpt lat="47.50182" lon="-2.77848">
        <ele>31</ele>
        <time>2018-05-03T14:24:04Z</time>
      </trkpt>
      <trkpt lat="47.50183" lon="-2.77799">
        <ele>31</ele>
        <time>2018-05-03T14:25:04Z</time>
      </trkpt>
      <trkpt lat="47.5018" lon="-2.77763">
        <ele>32</ele>
        <time>2018-05-03T14:26:04Z</time>
      </trkpt>
      <trkpt lat="47.50159" lon="-2.776">
        <ele>27</ele>
        <time>2018-05-03T14:27:04Z</time>
      </trkpt>
      <trkpt lat="47.50161" lon="-2.77566">
        <ele>25</ele>
        <time>2018-05-03T14:28:04Z</time>
      </trkpt>
      <trkpt lat="47.50165" lon="-2.77543">
        <ele>24</ele>
        <time>2018-05-03T14:29:04Z</time>
      </trkpt>
      <trkpt lat="47.50194" lon="-2.77424">
        <ele>18</ele>
        <time>2018-05-03T14:30:04Z</time>
      </trkpt>
      <trkpt lat="47.50226" lon="-2.77334">
        <ele>13</ele>
        <time>2018-05-03T14:31:04Z</time>
      </trkpt>
      <trkpt lat="47.50235" lon="-2.77311">
        <ele>12</ele>
        <time>2018-05-03T14:32:04Z</time>
      </trkpt>
      <trkpt lat="47.50244" lon="-2.7728">
        <ele>10</ele>
        <time>2018-05-03T14:33:04Z</time>
      </trkpt>
      <trkpt lat="47.5025" lon="-2.77247">
        <ele>9</ele>
        <time>2018-05-03T14:34:04Z</time>
      </trkpt>
      <trkpt lat="47.50256" lon="-2.77167">
        <ele>7</ele>
        <time>2018-05-03T14:35:04Z</time>
      </trkpt>
      <trkpt lat="47.50266" lon="-2.77166">
        <ele>7</ele>
        <time>2018-05-03T14:36:04Z</time>
      </trkpt>
      <trkpt lat="47.50277" lon="-2.77171">
        <ele>7</ele>
        <time>2018-05-03T14:37:04Z</time>
      </trkpt>
      <trkpt lat="47.50309" lon="-2.77201">
        <ele>9</ele>
        <time>2018-05-03T14:38:04Z</time>
      </trkpt>
      <trkpt lat="47.50369" lon="-2.77243">
        <ele>10</ele>
        <time>2018-05-03T14:39:04Z</time>
      </trkpt>
      <trkpt lat="47.50402" lon="-2.77258">
        <ele>10</ele>
        <time>2018-05-03T14:40:04Z</time>
      </trkpt>
      <trkpt lat="47.50433" lon="-2.77261">
        <ele>11</ele>
        <time>2018-05-03T14:41:04Z</time>
      </trkpt>
      <trkpt lat="47.50469" lon="-2.7726">
        <ele>12</ele>
        <time>2018-05-03T14:42:04Z</time>
      </trkpt>
      <trkpt lat="47.50487" lon="-2.77253">
        <ele>13</ele>
        <time>2018-05-03T14:43:04Z</time>
      </trkpt>
      <trkpt lat="47.50522" lon="-2.77221">
        <ele>14</ele>
        <time>2018-05-03T14:44:04Z</time>
      </trkpt>
      <trkpt lat="47.50537" lon="-2.77215">
        <ele>15</ele>
        <time>2018-05-03T14:45:04Z</time>
      </trkpt>
      <trkpt lat="47.50645" lon="-2.77187">
        <ele>17</ele>
        <time>2018-05-03T14:46:04Z</time>
      </trkpt>
      <trkpt lat="47.50696" lon="-2.7718">
        <ele>18</ele>
        <time>2018-05-03T14:47:04Z</time>
      </trkpt>
      <trkpt lat="47.50773" lon="-2.77186">
        <ele>21</ele>
        <time>2018-05-03T14:48:04Z</time>
      </trkpt>
      <trkpt lat="47.50824" lon="-2.77185">
        <ele>24</ele>
        <time>2018-05-03T14:49:04Z</time>
      </trkpt>
      <trkpt lat="47.50853" lon="-2.77181">
        <ele>26</ele>
        <time>2018-05-03T14:50:04Z</time>
      </trkpt>
      <trkpt lat="47.50872" lon="-2.77172">
        <ele>27</ele>
        <time>2018-05-03T14:51:04Z</time>
      </trkpt>
      <trkpt lat="47.50884" lon="-2.77164">
        <ele>28</ele>
        <time>2018-05-03T14:52:04Z</time>
      </trkpt>
      <trkpt lat="47.51097" lon="-2.7696">
        <ele>29</ele>
        <time>2018-05-03T14:53:04Z</time>
      </trkpt>
      <trkpt lat="47.51161" lon="-2.76901">
        <ele>31</ele>
        <time>2018-05-03T14:54:04Z</time>
      </trkpt>
      <trkpt lat="47.51171" lon="-2.76886">
        <ele>30</ele>
        <time>2018-05-03T14:55:04Z</time>
      </trkpt>
      <trkpt lat="47.51198" lon="-2.76834">
        <ele>29</ele>
        <time>2018-05-03T14:56:04Z</time>
      </trkpt>
      <trkpt lat="47.51231" lon="-2.76755">
        <ele>26</ele>
        <time>2018-05-03T14:57:04Z</time>
      </trkpt>
      <trkpt lat="47.51253" lon="-2.76708">
        <ele>26</ele>
        <time>2018-05-03T14:58:04Z</time>
      </trkpt>
      <trkpt lat="47.51272" lon="-2.7668">
        <ele>25</ele>
        <time>2018-05-03T14:59:04Z</time>
      </trkpt>
      <trkpt lat="47.51284" lon="-2.76671">
        <ele>24</ele>
        <time>2018-05-03T15:00:04Z</time>
      </trkpt>
      <trkpt lat="47.51401" lon="-2.76638">
        <ele>18</ele>
        <time>2018-05-03T15:01:04Z</time>
      </trkpt>
      <trkpt lat="47.51424" lon="-2.76636">
        <ele>17</ele>
        <time>2018-05-03T15:02:04Z</time>
      </trkpt>
      <trkpt lat="47.51483" lon="-2.76639">
        <ele>14</ele>
        <time>2018-05-03T15:03:04Z</time>
      </trkpt>
      <trkpt lat="47.51521" lon="-2.76636">
        <ele>12</ele>
        <time>2018-05-03T15:04:04Z</time>
      </trkpt>
      <trkpt lat="47.51571" lon="-2.76627">
        <ele>10</ele>
        <time>2018-05-03T15:05:04Z</time>
      </trkpt>
      <trkpt lat="47.51589" lon="-2.76629">
        <ele>10</ele>
        <time>2018-05-03T15:06:04Z</time>
      </trkpt>
      <trkpt lat="47.51606" lon="-2.76638">
        <ele>10</ele>
        <time>2018-05-03T15:07:04Z</time>
      </trkpt>
      <trkpt lat="47.51627" lon="-2.76658">
        <ele>10</ele>
        <time>2018-05-03T15:08:04Z</time>
      </trkpt>
      <trkpt lat="47.51658" lon="-2.76692">
        <ele>11</ele>
        <time>2018-05-03T15:09:04Z</time>
      </trkpt>
      <trkpt lat="47.51666" lon="-2.7667">
        <ele>11</ele>
        <time>2018-05-03T15:10:04Z</time>
      </trkpt>
      <trkpt lat="47.51673" lon="-2.76673">
        <ele>11</ele>
        <time>2018-05-03T15:11:04Z</time>
      </trkpt>
      <trkpt lat="47.51737" lon="-2.76484">
        <ele>10</ele>
        <time>2018-05-03T15:12:04Z</time>
      </trkpt>
      <trkpt lat="47.51735" lon="-2.76477">
        <ele>10</ele>
        <time>2018-05-03T15:13:04Z</time>
      </trkpt>
      <trkpt lat="47.51837" lon="-2.76373">
        <ele>7</ele>
        <time>2018-05-03T15:14:04Z</time>
      </trkpt>
      <trkpt lat="47.51848" lon="-2.76353">
        <ele>7</ele>
        <time>2018-05-03T15:15:04Z</time>
      </trkpt>
      <trkpt lat="47.5185" lon="-2.76319">
        <ele>7</ele>
        <time>2018-05-03T15:16:04Z</time>
      </trkpt>
      <trkpt lat="47.5185" lon="-2.76164">
        <ele>7</ele>
        <time>2018-05-03T15:17:04Z</time>
      </trkpt>
      <trkpt lat="47.51864" lon="-2.7609">
        <ele>8</ele>
        <time>2018-05-03T15:18:04Z</time>
      </trkpt>
      <trkpt lat="47.51891" lon="-2.76028">
        <ele>9</ele>
        <time>2018-05-03T15:19:04Z</time>
      </trkpt>
      <trkpt lat="47.51956" lon="-2.75907">
        <ele>8</ele>
        <time>2018-05-03T15:20:04Z</time>
      </trkpt>
      <trkpt lat="47.51965" lon="-2.75884">
        <ele>8</ele>
        <time>2018-05-03T15:21:04Z</time>
      </trkpt>
      <trkpt lat="47.51973" lon="-2.75859">
        <ele>8</ele>
        <time>2018-05-03T15:22:04Z</time>
      </trkpt>
      <trkpt lat="47.51979" lon="-2.7583">
        <ele>8</ele>
        <time>2018-05-03T15:23:04Z</time>
      </trkpt>
      <trkpt lat="47.52" lon="-2.75689">
        <ele>11</ele>
        <time>2018-05-03T15:24:04Z</time>
      </trkpt>
      <trkpt lat="47.52018" lon="-2.75607">
        <ele>12</ele>
        <time>2018-05-03T15:25:04Z</time>
      </trkpt>
      <trkpt lat="47.52025" lon="-2.75589">
        <ele>12</ele>
        <time>2018-05-03T15:26:04Z</time>
      </trkpt>
      <trkpt lat="47.51988" lon="-2.75567">
        <ele>12</ele>
        <time>2018-05-03T15:27:04Z</time>
      </trkpt>
      <trkpt lat="47.51899" lon="-2.75567">
        <ele>12</ele>
        <time>2018-05-03T15:28:04Z</time>
      </trkpt>
      <trkpt lat="47.5185" lon="-2.7553">
        <ele>14</ele>
        <time>2018-05-03T15:29:04Z</time>
      </trkpt>
      <trkpt lat="47.51809" lon="-2.75485">
        <ele>15</ele>
        <time>2018-05-03T15:30:04Z</time>
      </trkpt>
      <trkpt lat="47.51728" lon="-2.75483">
        <ele>15</ele>
        <time>2018-05-03T15:31:04Z</time>
      </trkpt>
      <trkpt lat="47.51709" lon="-2.75477">
        <ele>14</ele>
        <time>2018-05-03T15:32:04Z</time>
      </trkpt>
      <trkpt lat="47.51699" lon="-2.75445">
        <ele>14</ele>
        <time>2018-05-03T15:33:04Z</time>
      </trkpt>
      <trkpt lat="47.5168" lon="-2.75213">
        <ele>14</ele>
        <time>2018-05-03T15:34:04Z</time>
      </trkpt>
      <trkpt lat="47.5167" lon="-2.75168">
        <ele>13</ele>
        <time>2018-05-03T15:35:04Z</time>
      </trkpt>
      <trkpt lat="47.51625" lon="-2.75091">
        <ele>11</ele>
        <time>2018-05-03T15:36:04Z</time>
      </trkpt>
      <trkpt lat="47.51593" lon="-2.7503">
        <ele>9</ele>
        <time>2018-05-03T15:37:04Z</time>
      </trkpt>
      <trkpt lat="47.5156" lon="-2.75013">
        <ele>8</ele>
        <time>2018-05-03T15:38:04Z</time>
      </trkpt>
      <trkpt lat="47.51434" lon="-2.74981">
        <ele>8</ele>
        <time>2018-05-03T15:39:04Z</time>
      </trkpt>
      <trkpt lat="47.51342" lon="-2.74964">
        <ele>14</ele>
        <time>2018-05-03T15:40:04Z</time>
      </trkpt>
      <trkpt lat="47.5129" lon="-2.74949">
        <ele>15</ele>
        <time>2018-05-03T15:41:04Z</time>
      </trkpt>
      <trkpt lat="47.51182" lon="-2.74985">
        <ele>19</ele>
        <time>2018-05-03T15:42:04Z</time>
      </trkpt>
      <trkpt lat="47.51115" lon="-2.75005">
        <ele>18</ele>
        <time>2018-05-03T15:43:04Z</time>
      </trkpt>
      <trkpt lat="47.51055" lon="-2.75015">
        <ele>15</ele>
        <time>2018-05-03T15:44:04Z</time>
      </trkpt>
      <trkpt lat="47.51006" lon="-2.75017">
        <ele>11</ele>
        <time>2018-05-03T15:45:04Z</time>
      </trkpt>
      <trkpt lat="47.50973" lon="-2.75052">
        <ele>10</ele>
        <time>2018-05-03T15:46:04Z</time>
      </trkpt>
      <trkpt lat="47.50973" lon="-2.75052">
        <ele>10</ele>
        <time>2018-05-03T15:47:04Z</time>
      </trkpt>
      <trkpt lat="47.51006" lon="-2.75017">
        <ele>11</ele>
        <time>2018-05-03T15:48:04Z</time>
      </trkpt>
      <trkpt lat="47.51006" lon="-2.75001">
        <ele>11</ele>
        <time>2018-05-03T15:49:04Z</time>
      </trkpt>
      <trkpt lat="47.51014" lon="-2.74954">
        <ele>12</ele>
        <time>2018-05-03T15:50:04Z</time>
      </trkpt>
      <trkpt lat="47.51039" lon="-2.7483">
        <ele>11</ele>
        <time>2018-05-03T15:51:04Z</time>
      </trkpt>
      <trkpt lat="47.51045" lon="-2.7481">
        <ele>10</ele>
        <time>2018-05-03T15:52:04Z</time>
      </trkpt>
      <trkpt lat="47.51072" lon="-2.74741">
        <ele>8</ele>
        <time>2018-05-03T15:53:04Z</time>
      </trkpt>
      <trkpt lat="47.511" lon="-2.74628">
        <ele>7</ele>
        <time>2018-05-03T15:54:04Z</time>
      </trkpt>
      <trkpt lat="47.51109" lon="-2.74544">
        <ele>8</ele>
        <time>2018-05-03T15:55:04Z</time>
      </trkpt>
      <trkpt lat="47.51114" lon="-2.74415">
        <ele>8</ele>
        <time>2018-05-03T15:56:04Z</time>
      </trkpt>
      <trkpt lat="47.51124" lon="-2.74036">
        <ele>11</ele>
        <time>2018-05-03T15:57:04Z</time>
      </trkpt>
      <trkpt lat="47.51128" lon="-2.73751">
        <ele>17</ele>
        <time>2018-05-03T15:58:04Z</time>
      </trkpt>
      <trkpt lat="47.51127" lon="-2.73427">
        <ele>13</ele>
        <time>2018-05-03T15:59:04Z</time>
      </trkpt>
      <trkpt lat="47.51126" lon="-2.7341">
        <ele>13</ele>
        <time>2018-05-03T16:00:04Z</time>
      </trkpt>
      <trkpt lat="47.51124" lon="-2.73404">
        <ele>13</ele>
        <time>2018-05-03T16:01:04Z</time>
      </trkpt>
      <trkpt lat="47.5112" lon="-2.73399">
        <ele>13</ele>
        <time>2018-05-03T16:02:04Z</time>
      </trkpt>
      <trkpt lat="47.5109" lon="-2.734">
        <ele>13</ele>
        <time>2018-05-03T16:03:04Z</time>
      </trkpt>
      <trkpt lat="47.51086" lon="-2.73395">
        <ele>13</ele>
        <time>2018-05-03T16:04:04Z</time>
      </trkpt>
      <trkpt lat="47.51084" lon="-2.73389">
        <ele>13</ele>
        <time>2018-05-03T16:05:04Z</time>
      </trkpt>
      <trkpt lat="47.51082" lon="-2.73378">
        <ele>13</ele>
        <time>2018-05-03T16:06:04Z</time>
      </trkpt>
      <trkpt lat="47.5108" lon="-2.73215">
        <ele>11</ele>
        <time>2018-05-03T16:07:04Z</time>
      </trkpt>
      <trkpt lat="47.51072" lon="-2.73047">
        <ele>10</ele>
        <time>2018-05-03T16:08:04Z</time>
      </trkpt>
      <trkpt lat="47.51065" lon="-2.73004">
        <ele>9</ele>
        <time>2018-05-03T16:09:04Z</time>
      </trkpt>
      <trkpt lat="47.51066" lon="-2.72997">
        <ele>9</ele>
        <time>2018-05-03T16:10:04Z</time>
      </trkpt>
      <trkpt lat="47.5107" lon="-2.72991">
        <ele>9</ele>
        <time>2018-05-03T16:11:04Z</time>
      </trkpt>
      <trkpt lat="47.51085" lon="-2.72986">
        <ele>9</ele>
        <time>2018-05-03T16:12:04Z</time>
      </trkpt>
      <trkpt lat="47.51129" lon="-2.72949">
        <ele>9</ele>
        <time>2018-05-03T16:13:04Z</time>
      </trkpt>
      <trkpt lat="47.51144" lon="-2.72938">
        <ele>9</ele>
        <time>2018-05-03T16:14:04Z</time>
      </trkpt>
      <trkpt lat="47.51163" lon="-2.72913">
        <ele>9</ele>
        <time>2018-05-03T16:15:04Z</time>
      </trkpt>
      <trkpt lat="47.51161" lon="-2.72906">
        <ele>8</ele>
        <time>2018-05-03T16:16:04Z</time>
      </trkpt>
      <trkpt lat="47.51157" lon="-2.72907">
        <ele>8</ele>
        <time>2018-05-03T16:17:04Z</time>
      </trkpt>
      <trkpt lat="47.51157" lon="-2.72907">
        <ele>8</ele>
        <time>2018-05-03T16:18:04Z</time>
      </trkpt>
      <trkpt lat="47.51161" lon="-2.72906">
        <ele>8</ele>
        <time>2018-05-03T16:19:04Z</time>
      </trkpt>
      <trkpt lat="47.51163" lon="-2.72913">
        <ele>9</ele>
        <time>2018-05-03T16:20:04Z</time>
      </trkpt>
      <trkpt lat="47.51214" lon="-2.72894">
        <ele>7</ele>
        <time>2018-05-03T16:21:04Z</time>
      </trkpt>
      <trkpt lat="47.51237" lon="-2.72883">
        <ele>7</ele>
        <time>2018-05-03T16:22:04Z</time>
      </trkpt>
      <trkpt lat="47.51272" lon="-2.72862">
        <ele>6</ele>
        <time>2018-05-03T16:23:04Z</time>
      </trkpt>
      <trkpt lat="47.51337" lon="-2.7287">
        <ele>5</ele>
        <time>2018-05-03T16:24:04Z</time>
      </trkpt>
      <trkpt lat="47.51356" lon="-2.72868">
        <ele>5</ele>
        <time>2018-05-03T16:25:04Z</time>
      </trkpt>
      <trkpt lat="47.51378" lon="-2.72857">
        <ele>6</ele>
        <time>2018-05-03T16:26:04Z</time>
      </trkpt>
      <trkpt lat="47.51399" lon="-2.72843">
        <ele>6</ele>
        <time>2018-05-03T16:27:04Z</time>
      </trkpt>
      <trkpt lat="47.5147" lon="-2.72788">
        <ele>6</ele>
        <time>2018-05-03T16:28:04Z</time>
      </trkpt>
      <trkpt lat="47.51503" lon="-2.72764">
        <ele>6</ele>
        <time>2018-05-03T16:29:04Z</time>
      </trkpt>
      <trkpt lat="47.51522" lon="-2.72754">
        <ele>6</ele>
        <time>2018-05-03T16:30:04Z</time>
      </trkpt>
      <trkpt lat="47.51678" lon="-2.72715">
        <ele>8</ele>
        <time>2018-05-03T16:31:04Z</time>
      </trkpt>
      <trkpt lat="47.51707" lon="-2.72689">
        <ele>8</ele>
        <time>2018-05-03T16:32:04Z</time>
      </trkpt>
      <trkpt lat="47.51739" lon="-2.72773">
        <ele>7</ele>
        <time>2018-05-03T16:33:04Z</time>
      </trkpt>
      <trkpt lat="47.51823" lon="-2.72914">
        <ele>11</ele>
        <time>2018-05-03T16:34:04Z</time>
      </trkpt>
      <trkpt lat="47.51898" lon="-2.7303">
        <ele>11</ele>
        <time>2018-05-03T16:35:04Z</time>
      </trkpt>
      <trkpt lat="47.52086" lon="-2.73305">
        <ele>14</ele>
        <time>2018-05-03T16:36:04Z</time>
      </trkpt>
      <trkpt lat="47.52304" lon="-2.73628">
        <ele>23</ele>
        <time>2018-05-03T16:37:04Z</time>
      </trkpt>
      <trkpt lat="47.52378" lon="-2.73672">
        <ele>26</ele>
        <time>2018-05-03T16:38:04Z</time>
      </trkpt>
      <trkpt lat="47.52393" lon="-2.73695">
        <ele>27</ele>
        <time>2018-05-03T16:39:04Z</time>
      </trkpt>
      <trkpt lat="47.52409" lon="-2.73731">
        <ele>28</ele>
        <time>2018-05-03T16:40:04Z</time>
      </trkpt>
      <trkpt lat="47.52442" lon="-2.73815">
        <ele>30</ele>
        <time>2018-05-03T16:41:04Z</time>
      </trkpt>
      <trkpt lat="47.52469" lon="-2.73909">
        <ele>32</ele>
        <time>2018-05-03T16:42:04Z</time>
      </trkpt>
      <trkpt lat="47.52539" lon="-2.74106">
        <ele>25</ele>
        <time>2018-05-03T16:43:04Z</time>
      </trkpt>
      <trkpt lat="47.52553" lon="-2.74153">
        <ele>23</ele>
        <time>2018-05-03T16:44:04Z</time>
      </trkpt>
      <trkpt lat="47.52563" lon="-2.74204">
        <ele>22</ele>
        <time>2018-05-03T16:45:04Z</time>
      </trkpt>
      <trkpt lat="47.52583" lon="-2.74408">
        <ele>21</ele>
        <time>2018-05-03T16:46:04Z</time>
      </trkpt>
      <trkpt lat="47.52594" lon="-2.74549">
        <ele>24</ele>
        <time>2018-05-03T16:47:04Z</time>
      </trkpt>
      <trkpt lat="47.52601" lon="-2.74623">
        <ele>25</ele>
        <time>2018-05-03T16:48:04Z</time>
      </trkpt>
      <trkpt lat="47.5265" lon="-2.74919">
        <ele>24</ele>
        <time>2018-05-03T16:49:04Z</time>
      </trkpt>
      <trkpt lat="47.52679" lon="-2.75053">
        <ele>24</ele>
        <time>2018-05-03T16:50:04Z</time>
      </trkpt>
      <trkpt lat="47.52692" lon="-2.75091">
        <ele>24</ele>
        <time>2018-05-03T16:51:04Z</time>
      </trkpt>
      <trkpt lat="47.52703" lon="-2.75116">
        <ele>24</ele>
        <time>2018-05-03T16:52:04Z</time>
      </trkpt>
      <trkpt lat="47.52738" lon="-2.75166">
        <ele>22</ele>
        <time>2018-05-03T16:53:04Z</time>
      </trkpt>
      <trkpt lat="47.5281" lon="-2.75241">
        <ele>20</ele>
        <time>2018-05-03T16:54:04Z</time>
      </trkpt>
      <trkpt lat="47.52829" lon="-2.75265">
        <ele>21</ele>
        <time>2018-05-03T16:55:04Z</time>
      </trkpt>
      <trkpt lat="47.5286" lon="-2.75313">
        <ele>22</ele>
        <time>2018-05-03T16:56:04Z</time>
      </trkpt>
      <trkpt lat="47.52869" lon="-2.75331">
        <ele>22</ele>
        <time>2018-05-03T16:57:04Z</time>
      </trkpt>
      <trkpt lat="47.52875" lon="-2.75349">
        <ele>23</ele>
        <time>2018-05-03T16:58:04Z</time>
      </trkpt>
      <trkpt lat="47.52878" lon="-2.75379">
        <ele>23</ele>
        <time>2018-05-03T16:59:04Z</time>
      </trkpt>
      <trkpt lat="47.52875" lon="-2.75396">
        <ele>24</ele>
        <time>2018-05-03T17:00:04Z</time>
      </trkpt>
      <trkpt lat="47.52867" lon="-2.75418">
        <ele>24</ele>
        <time>2018-05-03T17:01:04Z</time>
      </trkpt>
      <trkpt lat="47.52851" lon="-2.7544">
        <ele>25</ele>
        <time>2018-05-03T17:02:04Z</time>
      </trkpt>
      <trkpt lat="47.5278" lon="-2.75523">
        <ele>26</ele>
        <time>2018-05-03T17:03:04Z</time>
      </trkpt>
      <trkpt lat="47.52761" lon="-2.75543">
        <ele>27</ele>
        <time>2018-05-03T17:04:04Z</time>
      </trkpt>
      <trkpt lat="47.52762" lon="-2.75549">
        <ele>27</ele>
        <time>2018-05-03T17:05:04Z</time>
      </trkpt>
      <trkpt lat="47.52759" lon="-2.75561">
        <ele>27</ele>
        <time>2018-05-03T17:06:04Z</time>
      </trkpt>
      <trkpt lat="47.52752" lon="-2.75568">
        <ele>28</ele>
        <time>2018-05-03T17:07:04Z</time>
      </trkpt>
      <trkpt lat="47.52748" lon="-2.75569">
        <ele>28</ele>
        <time>2018-05-03T17:08:04Z</time>
      </trkpt>
      <trkpt lat="47.52749" lon="-2.75598">
        <ele>28</ele>
        <time>2018-05-03T17:09:04Z</time>
      </trkpt>
      <trkpt lat="47.52751" lon="-2.75626">
        <ele>29</ele>
        <time>2018-05-03T17:10:04Z</time>
      </trkpt>
      <trkpt lat="47.52781" lon="-2.75836">
        <ele>27</ele>
        <time>2018-05-03T17:11:04Z</time>
      </trkpt>
      <trkpt lat="47.52784" lon="-2.75884">
        <ele>27</ele>
        <time>2018-05-03T17:12:04Z</time>
      </trkpt>
      <trkpt lat="47.52784" lon="-2.75933">
        <ele>27</ele>
        <time>2018-05-03T17:13:04Z</time>
      </trkpt>
      <trkpt lat="47.52772" lon="-2.76197">
        <ele>30</ele>
        <time>2018-05-03T17:14:04Z</time>
      </trkpt>
      <trkpt lat="47.52765" lon="-2.76416">
        <ele>27</ele>
        <time>2018-05-03T17:15:04Z</time>
      </trkpt>
      <trkpt lat="47.52758" lon="-2.76498">
        <ele>30</ele>
        <time>2018-05-03T17:16:04Z</time>
      </trkpt>
      <trkpt lat="47.52755" lon="-2.76515">
        <ele>30</ele>
        <time>2018-05-03T17:17:04Z</time>
      </trkpt>
      <trkpt lat="47.52757" lon="-2.7652">
        <ele>30</ele>
        <time>2018-05-03T17:18:04Z</time>
      </trkpt>
      <trkpt lat="47.52756" lon="-2.76524">
        <ele>30</ele>
        <time>2018-05-03T17:19:04Z</time>
      </trkpt>
      <trkpt lat="47.52754" lon="-2.76527">
        <ele>30</ele>
        <time>2018-05-03T17:20:04Z</time>
      </trkpt>
      <trkpt lat="47.52756" lon="-2.76536">
        <ele>30</ele>
        <time>2018-05-03T17:21:04Z</time>
      </trkpt>
      <trkpt lat="47.52755" lon="-2.76578">
        <ele>30</ele>
        <time>2018-05-03T17:22:04Z</time>
      </trkpt>
      <trkpt lat="47.52757" lon="-2.76603">
        <ele>30</ele>
        <time>2018-05-03T17:23:04Z</time>
      </trkpt>
      <trkpt lat="47.52772" lon="-2.76688">
        <ele>30</ele>
        <time>2018-05-03T17:24:04Z</time>
      </trkpt>
      <trkpt lat="47.52771" lon="-2.76742">
        <ele>30</ele>
        <time>2018-05-03T17:25:04Z</time>
      </trkpt>
      <trkpt lat="47.52774" lon="-2.76781">
        <ele>31</ele>
        <time>2018-05-03T17:26:04Z</time>
      </trkpt>
      <trkpt lat="47.52776" lon="-2.76792">
        <ele>31</ele>
        <time>2018-05-03T17:27:04Z</time>
      </trkpt>
      <trkpt lat="47.52779" lon="-2.76798">
        <ele>31</ele>
        <time>2018-05-03T17:28:04Z</time>
      </trkpt>
      <trkpt lat="47.52782" lon="-2.76795">
        <ele>31</ele>
        <time>2018-05-03T17:29:04Z</time>
      </trkpt>
      <trkpt lat="47.52816" lon="-2.76835">
        <ele>31</ele>
        <time>2018-05-03T17:30:04Z</time>
      </trkpt>
      <trkpt lat="47.52817" lon="-2.76838">
        <ele>31</ele>
        <time>2018-05-03T17:31:04Z</time>
      </trkpt>
      <trkpt lat="47.52852" lon="-2.76852">
        <ele>31</ele>
        <time>2018-05-03T17:32:04Z</time>
      </trkpt>
      <trkpt lat="47.52838" lon="-2.76915">
        <ele>31</ele>
        <time>2018-05-03T17:33:04Z</time>
      </trkpt>
      <trkpt lat="47.52809" lon="-2.76999">
        <ele>30</ele>
        <time>2018-05-03T17:34:04Z</time>
      </trkpt>
      <trkpt lat="47.52799" lon="-2.77037">
        <ele>30</ele>
        <time>2018-05-03T17:35:04Z</time>
      </trkpt>
      <trkpt lat="47.52796" lon="-2.77068">
        <ele>29</ele>
        <time>2018-05-03T17:36:04Z</time>
      </trkpt>
      <trkpt lat="47.52795" lon="-2.7712">
        <ele>28</ele>
        <time>2018-05-03T17:37:04Z</time>
      </trkpt>
      <trkpt lat="47.52786" lon="-2.77126">
        <ele>28</ele>
        <time>2018-05-03T17:38:04Z</time>
      </trkpt>
      <trkpt lat="47.52738" lon="-2.77177">
        <ele>28</ele>
        <time>2018-05-03T17:39:04Z</time>
      </trkpt>
      <trkpt lat="47.52787" lon="-2.77214">
        <ele>27</ele>
        <time>2018-05-03T17:40:04Z</time>
      </trkpt>
      <trkpt lat="47.52801" lon="-2.77221">
        <ele>27</ele>
        <time>2018-05-03T17:41:04Z</time>
      </trkpt>
      <trkpt lat="47.52884" lon="-2.7728">
        <ele>24</ele>
        <time>2018-05-03T17:42:04Z</time>
      </trkpt>
      <trkpt lat="47.52955" lon="-2.77337">
        <ele>17</ele>
        <time>2018-05-03T17:43:04Z</time>
      </trkpt>
      <trkpt lat="47.53013" lon="-2.77399">
        <ele>11</ele>
        <time>2018-05-03T17:44:04Z</time>
      </trkpt>
      <trkpt lat="47.53083" lon="-2.77458">
        <ele>10</ele>
        <time>2018-05-03T17:45:04Z</time>
      </trkpt>
      <trkpt lat="47.53105" lon="-2.77479">
        <ele>9</ele>
        <time>2018-05-03T17:46:04Z</time>
      </trkpt>
      <trkpt lat="47.53122" lon="-2.77505">
        <ele>9</ele>
        <time>2018-05-03T17:47:04Z</time>
      </trkpt>
      <trkpt lat="47.5314" lon="-2.77536">
        <ele>8</ele>
        <time>2018-05-03T17:48:04Z</time>
      </trkpt>
      <trkpt lat="47.53162" lon="-2.77567">
        <ele>8</ele>
        <time>2018-05-03T17:49:04Z</time>
      </trkpt>
      <trkpt lat="47.53176" lon="-2.77579">
        <ele>8</ele>
        <time>2018-05-03T17:50:04Z</time>
      </trkpt>
      <trkpt lat="47.53194" lon="-2.77589">
        <ele>7</ele>
        <time>2018-05-03T17:51:04Z</time>
      </trkpt>
      <trkpt lat="47.53418" lon="-2.77683">
        <ele>12</ele>
        <time>2018-05-03T17:52:04Z</time>
      </trkpt>
      <trkpt lat="47.53454" lon="-2.7771">
        <ele>13</ele>
        <time>2018-05-03T17:53:04Z</time>
      </trkpt>
      <trkpt lat="47.53595" lon="-2.77869">
        <ele>14</ele>
        <time>2018-05-03T17:54:04Z</time>
      </trkpt>
      <trkpt lat="47.53622" lon="-2.77912">
        <ele>13</ele>
        <time>2018-05-03T17:55:04Z</time>
      </trkpt>
      <trkpt lat="47.53662" lon="-2.77996">
        <ele>10</ele>
        <time>2018-05-03T17:56:04Z</time>
      </trkpt>
      <trkpt lat="47.5369" lon="-2.78039">
        <ele>10</ele>
        <time>2018-05-03T17:57:04Z</time>
      </trkpt>
      <trkpt lat="47.53709" lon="-2.78058">
        <ele>11</ele>
        <time>2018-05-03T17:58:04Z</time>
      </trkpt>
      <trkpt lat="47.53735" lon="-2.78069">
        <ele>12</ele>
        <time>2018-05-03T17:59:04Z</time>
      </trkpt>
      <trkpt lat="47.5386" lon="-2.78097">
        <ele>9</ele>
        <time>2018-05-03T18:00:04Z</time>
      </trkpt>
      <trkpt lat="47.53917" lon="-2.78101">
        <ele>6</ele>
        <time>2018-05-03T18:01:04Z</time>
      </trkpt>
      <trkpt lat="47.53966" lon="-2.78095">
        <ele>4</ele>
        <time>2018-05-03T18:02:04Z</time>
      </trkpt>
      <trkpt lat="47.53983" lon="-2.78095">
        <ele>2</ele>
        <time>2018-05-03T18:03:04Z</time>
      </trkpt>
      <trkpt lat="47.54012" lon="-2.78104">
        <ele>2</ele>
        <time>2018-05-03T18:04:04Z</time>
      </trkpt>
      <trkpt lat="47.54029" lon="-2.78112">
        <ele>3</ele>
        <time>2018-05-03T18:05:04Z</time>
      </trkpt>
      <trkpt lat="47.54055" lon="-2.7814">
        <ele>4</ele>
        <time>2018-05-03T18:06:04Z</time>
      </trkpt>
      <trkpt lat="47.54094" lon="-2.78189">
        <ele>6</ele>
        <time>2018-05-03T18:07:04Z</time>
      </trkpt>
      <trkpt lat="47.54109" lon="-2.78213">
        <ele>6</ele>
        <time>2018-05-03T18:08:04Z</time>
      </trkpt>
      <trkpt lat="47.54119" lon="-2.78235">
        <ele>7</ele>
        <time>2018-05-03T18:09:04Z</time>
      </trkpt>
      <trkpt lat="47.54123" lon="-2.78251">
        <ele>7</ele>
        <time>2018-05-03T18:10:04Z</time>
      </trkpt>
      <trkpt lat="47.54162" lon="-2.78427">
        <ele>7</ele>
        <time>2018-05-03T18:11:04Z</time>
      </trkpt>
      <trkpt lat="47.54171" lon="-2.7849">
        <ele>8</ele>
        <time>2018-05-03T18:12:04Z</time>
      </trkpt>
      <trkpt lat="47.54174" lon="-2.78543">
        <ele>9</ele>
        <time>2018-05-03T18:13:04Z</time>
      </trkpt>
      <trkpt lat="47.5417" lon="-2.78599">
        <ele>9</ele>
        <time>2018-05-03T18:14:04Z</time>
      </trkpt>
      <trkpt lat="47.54172" lon="-2.78641">
        <ele>10</ele>
        <time>2018-05-03T18:15:04Z</time>
      </trkpt>
      <trkpt lat="47.54175" lon="-2.78662">
        <ele>10</ele>
        <time>2018-05-03T18:16:04Z</time>
      </trkpt>
      <trkpt lat="47.54181" lon="-2.78682">
        <ele>10</ele>
        <time>2018-05-03T18:17:04Z</time>
      </trkpt>
      <trkpt lat="47.54212" lon="-2.78762">
        <ele>11</ele>
        <time>2018-05-03T18:18:04Z</time>
      </trkpt>
      <trkpt lat="47.54244" lon="-2.7883">
        <ele>12</ele>
        <time>2018-05-03T18:19:04Z</time>
      </trkpt>
      <trkpt lat="47.54236" lon="-2.78842">
        <ele>12</ele>
        <time>2018-05-03T18:20:04Z</time>
      </trkpt>
      <trkpt lat="47.54224" lon="-2.78853">
        <ele>12</ele>
        <time>2018-05-03T18:21:04Z</time>
      </trkpt>
      <trkpt lat="47.54224" lon="-2.78853">
        <ele>12</ele>
        <time>2018-05-03T18:22:04Z</time>
      </trkpt>
      <trkpt lat="47.54159" lon="-2.78907">
        <ele>14</ele>
        <time>2018-05-03T18:23:04Z</time>
      </trkpt>
      <trkpt lat="47.54125" lon="-2.78926">
        <ele>14</ele>
        <time>2018-05-03T18:24:04Z</time>
      </trkpt>
      <trkpt lat="47.54067" lon="-2.7895">
        <ele>14</ele>
        <time>2018-05-03T18:25:04Z</time>
      </trkpt>
      <trkpt lat="47.54011" lon="-2.78991">
        <ele>14</ele>
        <time>2018-05-03T18:26:04Z</time>
      </trkpt>
      <trkpt lat="47.53994" lon="-2.79059">
        <ele>15</ele>
        <time>2018-05-03T18:27:04Z</time>
      </trkpt>
      <trkpt lat="47.53987" lon="-2.79105">
        <ele>15</ele>
        <time>2018-05-03T18:28:04Z</time>
      </trkpt>
      <trkpt lat="47.53985" lon="-2.79168">
        <ele>15</ele>
        <time>2018-05-03T18:29:04Z</time>
      </trkpt>
      <trkpt lat="47.53981" lon="-2.79199">
        <ele>14</ele>
        <time>2018-05-03T18:30:04Z</time>
      </trkpt>
      <trkpt lat="47.53966" lon="-2.79262">
        <ele>13</ele>
        <time>2018-05-03T18:31:04Z</time>
      </trkpt>
      <trkpt lat="47.53962" lon="-2.79303">
        <ele>12</ele>
        <time>2018-05-03T18:32:04Z</time>
      </trkpt>
      <trkpt lat="47.53972" lon="-2.79305">
        <ele>12</ele>
        <time>2018-05-03T18:33:04Z</time>
      </trkpt>
      <trkpt lat="47.53977" lon="-2.79309">
        <ele>12</ele>
        <time>2018-05-03T18:34:04Z</time>
      </trkpt>
      <trkpt lat="47.5398" lon="-2.79315">
        <ele>12</ele>
        <time>2018-05-03T18:35:04Z</time>
      </trkpt>
      <trkpt lat="47.53934" lon="-2.79393">
        <ele>10</ele>
        <time>2018-05-03T18:36:04Z</time>
      </trkpt>
      <trkpt lat="47.53917" lon="-2.79425">
        <ele>9</ele>
        <time>2018-05-03T18:37:04Z</time>
      </trkpt>
      <trkpt lat="47.53889" lon="-2.79493">
        <ele>9</ele>
        <time>2018-05-03T18:38:04Z</time>
      </trkpt>
      <trkpt lat="47.53878" lon="-2.79511">
        <ele>9</ele>
        <time>2018-05-03T18:39:04Z</time>
      </trkpt>
      <trkpt lat="47.53868" lon="-2.7952">
        <ele>9</ele>
        <time>2018-05-03T18:40:04Z</time>
      </trkpt>
      <trkpt lat="47.53857" lon="-2.79526">
        <ele>8</ele>
        <time>2018-05-03T18:41:04Z</time>
      </trkpt>
      <trkpt lat="47.53841" lon="-2.79533">
        <ele>8</ele>
        <time>2018-05-03T18:42:04Z</time>
      </trkpt>
      <trkpt lat="47.53828" lon="-2.79544">
        <ele>8</ele>
        <time>2018-05-03T18:43:04Z</time>
      </trkpt>
      <trkpt lat="47.53812" lon="-2.79562">
        <ele>9</ele>
        <time>2018-05-03T18:44:04Z</time>
      </trkpt>
      <trkpt lat="47.53796" lon="-2.79589">
        <ele>10</ele>
        <time>2018-05-03T18:45:04Z</time>
      </trkpt>
      <trkpt lat="47.53772" lon="-2.79639">
        <ele>9</ele>
        <time>2018-05-03T18:46:04Z</time>
      </trkpt>
      <trkpt lat="47.53753" lon="-2.79688">
        <ele>8</ele>
        <time>2018-05-03T18:47:04Z</time>
      </trkpt>
      <trkpt lat="47.53738" lon="-2.79733">
        <ele>6</ele>
        <time>2018-05-03T18:48:04Z</time>
      </trkpt>
      <trkpt lat="47.53728" lon="-2.79779">
        <ele>4</ele>
        <time>2018-05-03T18:49:04Z</time>
      </trkpt>
      <trkpt lat="47.53714" lon="-2.79866">
        <ele>3</ele>
        <time>2018-05-03T18:50:04Z</time>
      </trkpt>
      <trkpt lat="47.53709" lon="-2.79927">
        <ele>4</ele>
        <time>2018-05-03T18:51:04Z</time>
      </trkpt>
      <trkpt lat="47.53711" lon="-2.79948">
        <ele>5</ele>
        <time>2018-05-03T18:52:04Z</time>
      </trkpt>
      <trkpt lat="47.53714" lon="-2.79961">
        <ele>6</ele>
        <time>2018-05-03T18:53:04Z</time>
      </trkpt>
      <trkpt lat="47.53724" lon="-2.79979">
        <ele>7</ele>
        <time>2018-05-03T18:54:04Z</time>
      </trkpt>
      <trkpt lat="47.53738" lon="-2.79997">
        <ele>7</ele>
        <time>2018-05-03T18:55:04Z</time>
      </trkpt>
      <trkpt lat="47.5375" lon="-2.80024">
        <ele>7</ele>
        <time>2018-05-03T18:56:04Z</time>
      </trkpt>
      <trkpt lat="47.538" lon="-2.8016">
        <ele>9</ele>
        <time>2018-05-03T18:57:04Z</time>
      </trkpt>
      <trkpt lat="47.53818" lon="-2.80231">
        <ele>11</ele>
        <time>2018-05-03T18:58:04Z</time>
      </trkpt>
      <trkpt lat="47.53836" lon="-2.80339">
        <ele>13</ele>
        <time>2018-05-03T18:59:04Z</time>
      </trkpt>
      <trkpt lat="47.53851" lon="-2.80404">
        <ele>11</ele>
        <time>2018-05-03T19:00:04Z</time>
      </trkpt>
      <trkpt lat="47.53865" lon="-2.8044">
        <ele>10</ele>
        <time>2018-05-03T19:01:04Z</time>
      </trkpt>
      <trkpt lat="47.53886" lon="-2.80471">
        <ele>9</ele>
        <time>2018-05-03T19:02:04Z</time>
      </trkpt>
      <trkpt lat="47.53929" lon="-2.80504">
        <ele>7</ele>
        <time>2018-05-03T19:03:04Z</time>
      </trkpt>
      <trkpt lat="47.53938" lon="-2.80513">
        <ele>7</ele>
        <time>2018-05-03T19:04:04Z</time>
      </trkpt>
      <trkpt lat="47.53987" lon="-2.80601">
        <ele>4</ele>
        <time>2018-05-03T19:05:04Z</time>
      </trkpt>
      <trkpt lat="47.54034" lon="-2.80668">
        <ele>3</ele>
        <time>2018-05-03T19:06:04Z</time>
      </trkpt>
      <trkpt lat="47.5406" lon="-2.80712">
        <ele>2</ele>
        <time>2018-05-03T19:07:04Z</time>
      </trkpt>
      <trkpt lat="47.54077" lon="-2.80772">
        <ele>3</ele>
        <time>2018-05-03T19:08:04Z</time>
      </trkpt>
      <trkpt lat="47.5408" lon="-2.80831">
        <ele>4</ele>
        <time>2018-05-03T19:09:04Z</time>
      </trkpt>
      <trkpt lat="47.54083" lon="-2.80843">
        <ele>4</ele>
        <time>2018-05-03T19:10:04Z</time>
      </trkpt>
      <trkpt lat="47.54126" lon="-2.80918">
        <ele>7</ele>
        <time>2018-05-03T19:11:04Z</time>
      </trkpt>
      <trkpt lat="47.54135" lon="-2.80948">
        <ele>7</ele>
        <time>2018-05-03T19:12:04Z</time>
      </trkpt>
      <trkpt lat="47.54137" lon="-2.80979">
        <ele>8</ele>
        <time>2018-05-03T19:13:04Z</time>
      </trkpt>
      <trkpt lat="47.54137" lon="-2.81027">
        <ele>7</ele>
        <time>2018-05-03T19:14:04Z</time>
      </trkpt>
      <trkpt lat="47.54164" lon="-2.81132">
        <ele>7</ele>
        <time>2018-05-03T19:15:04Z</time>
      </trkpt>
      <trkpt lat="47.54174" lon="-2.81187">
        <ele>7</ele>
        <time>2018-05-03T19:16:04Z</time>
      </trkpt>
      <trkpt lat="47.54174" lon="-2.8121">
        <ele>7</ele>
        <time>2018-05-03T19:17:04Z</time>
      </trkpt>
      <trkpt lat="47.54181" lon="-2.81239">
        <ele>7</ele>
        <time>2018-05-03T19:18:04Z</time>
      </trkpt>
      <trkpt lat="47.54189" lon="-2.81283">
        <ele>7</ele>
        <time>2018-05-03T19:19:04Z</time>
      </trkpt>
      <trkpt lat="47.54208" lon="-2.81412">
        <ele>7</ele>
        <time>2018-05-03T19:20:04Z</time>
      </trkpt>
      <trkpt lat="47.54204" lon="-2.8144">
        <ele>7</ele>
        <time>2018-05-03T19:21:04Z</time>
      </trkpt>
      <trkpt lat="47.54179" lon="-2.81494">
        <ele>8</ele>
        <time>2018-05-03T19:22:04Z</time>
      </trkpt>
      <trkpt lat="47.54163" lon="-2.81555">
        <ele>7</ele>
        <time>2018-05-03T19:23:04Z</time>
      </trkpt>
      <trkpt lat="47.54146" lon="-2.81589">
        <ele>8</ele>
        <time>2018-05-03T19:24:04Z</time>
      </trkpt>
      <trkpt lat="47.54137" lon="-2.81614">
        <ele>8</ele>
        <time>2018-05-03T19:25:04Z</time>
      </trkpt>
      <trkpt lat="47.54131" lon="-2.81638">
        <ele>8</ele>
        <time>2018-05-03T19:26:04Z</time>
      </trkpt>
      <trkpt lat="47.54128" lon="-2.81669">
        <ele>8</ele>
        <time>2018-05-03T19:27:04Z</time>
      </trkpt>
      <trkpt lat="47.54127" lon="-2.81745">
        <ele>7</ele>
        <time>2018-05-03T19:28:04Z</time>
      </trkpt>
      <trkpt lat="47.54133" lon="-2.81778">
        <ele>7</ele>
        <time>2018-05-03T19:29:04Z</time>
      </trkpt>
      <trkpt lat="47.54147" lon="-2.8182">
        <ele>6</ele>
        <time>2018-05-03T19:30:04Z</time>
      </trkpt>
      <trkpt lat="47.54186" lon="-2.81928">
        <ele>5</ele>
        <time>2018-05-03T19:31:04Z</time>
      </trkpt>
      <trkpt lat="47.54203" lon="-2.81971">
        <ele>5</ele>
        <time>2018-05-03T19:32:04Z</time>
      </trkpt>
      <trkpt lat="47.54237" lon="-2.82032">
        <ele>2</ele>
        <time>2018-05-03T19:33:04Z</time>
      </trkpt>
      <trkpt lat="47.54242" lon="-2.82051">
        <ele>2</ele>
        <time>2018-05-03T19:34:04Z</time>
      </trkpt>
      <trkpt lat="47.54249" lon="-2.82105">
        <ele>1</ele>
        <time>2018-05-03T19:35:04Z</time>
      </trkpt>
      <trkpt lat="47.54249" lon="-2.82137">
        <ele>2</ele>
        <time>2018-05-03T19:36:04Z</time>
      </trkpt>
      <trkpt lat="47.54235" lon="-2.82218">
        <ele>4</ele>
        <time>2018-05-03T19:37:04Z</time>
      </trkpt>
      <trkpt lat="47.54225" lon="-2.82288">
        <ele>5</ele>
        <time>2018-05-03T19:38:04Z</time>
      </trkpt>
      <trkpt lat="47.54218" lon="-2.8255">
        <ele>6</ele>
        <time>2018-05-03T19:39:04Z</time>
      </trkpt>
      <trkpt lat="47.54192" lon="-2.82647">
        <ele>4</ele>
        <time>2018-05-03T19:40:04Z</time>
      </trkpt>
      <trkpt lat="47.54192" lon="-2.82658">
        <ele>4</ele>
        <time>2018-05-03T19:41:04Z</time>
      </trkpt>
      <trkpt lat="47.542" lon="-2.82717">
        <ele>5</ele>
        <time>2018-05-03T19:42:04Z</time>
      </trkpt>
      <trkpt lat="47.542" lon="-2.82717">
        <ele>5</ele>
        <time>2018-05-03T19:43:04Z</time>
      </trkpt>
      <trkpt lat="47.54199" lon="-2.82743">
        <ele>6</ele>
        <time>2018-05-03T19:44:04Z</time>
      </trkpt>
      <trkpt lat="47.54192" lon="-2.82759">
        <ele>7</ele>
        <time>2018-05-03T19:45:04Z</time>
      </trkpt>
      <trkpt lat="47.54188" lon="-2.82765">
        <ele>7</ele>
        <time>2018-05-03T19:46:04Z</time>
      </trkpt>
      <trkpt lat="47.54174" lon="-2.82776">
        <ele>9</ele>
        <time>2018-05-03T19:47:04Z</time>
      </trkpt>
      <trkpt lat="47.54176" lon="-2.82839">
        <ele>11</ele>
        <time>2018-05-03T19:48:04Z</time>
      </trkpt>
      <trkpt lat="47.54186" lon="-2.82881">
        <ele>10</ele>
        <time>2018-05-03T19:49:04Z</time>
      </trkpt>
      <trkpt lat="47.54191" lon="-2.82915">
        <ele>10</ele>
        <time>2018-05-03T19:50:04Z</time>
      </trkpt>
      <trkpt lat="47.54188" lon="-2.82936">
        <ele>10</ele>
        <time>2018-05-03T19:51:04Z</time>
      </trkpt>
      <trkpt lat="47.54183" lon="-2.83043">
        <ele>8</ele>
        <time>2018-05-03T19:52:04Z</time>
      </trkpt>
      <trkpt lat="47.54183" lon="-2.83066">
        <ele>7</ele>
        <time>2018-05-03T19:53:04Z</time>
      </trkpt>
      <trkpt lat="47.54186" lon="-2.83086">
        <ele>7</ele>
        <time>2018-05-03T19:54:04Z</time>
      </trkpt>
      <trkpt lat="47.54237" lon="-2.83192">
        <ele>9</ele>
        <time>2018-05-03T19:55:04Z</time>
      </trkpt>
      <trkpt lat="47.54233" lon="-2.83203">
        <ele>9</ele>
        <time>2018-05-03T19:56:04Z</time>
      </trkpt>
      <trkpt lat="47.54201" lon="-2.83258">
        <ele>11</ele>
        <time>2018-05-03T19:57:04Z</time>
      </trkpt>
      <trkpt lat="47.54182" lon="-2.83299">
        <ele>12</ele>
        <time>2018-05-03T19:58:04Z</time>
      </trkpt>
      <trkpt lat="47.54171" lon="-2.8333">
        <ele>12</ele>
        <time>2018-05-03T19:59:04Z</time>
      </trkpt>
      <trkpt lat="47.54163" lon="-2.83363">
        <ele>12</ele>
        <time>2018-05-03T20:00:04Z</time>
      </trkpt>
      <trkpt lat="47.54161" lon="-2.83393">
        <ele>11</ele>
        <time>2018-05-03T20:01:04Z</time>
      </trkpt>
      <trkpt lat="47.54163" lon="-2.83418">
        <ele>11</ele>
        <time>2018-05-03T20:02:04Z</time>
      </trkpt>
      <trkpt lat="47.54167" lon="-2.83439">
        <ele>11</ele>
        <time>2018-05-03T20:03:04Z</time>
      </trkpt>
      <trkpt lat="47.5423" lon="-2.83602">
        <ele>13</ele>
        <time>2018-05-03T20:04:04Z</time>
      </trkpt>
      <trkpt lat="47.54236" lon="-2.83622">
        <ele>14</ele>
        <time>2018-05-03T20:05:04Z</time>
      </trkpt>
      <trkpt lat="47.54238" lon="-2.8364">
        <ele>14</ele>
        <time>2018-05-03T20:06:04Z</time>
      </trkpt>
      <trkpt lat="47.54239" lon="-2.83683">
        <ele>15</ele>
        <time>2018-05-03T20:07:04Z</time>
      </trkpt>
      <trkpt lat="47.54234" lon="-2.83722">
        <ele>15</ele>
        <time>2018-05-03T20:08:04Z</time>
      </trkpt>
      <trkpt lat="47.54232" lon="-2.8374">
        <ele>15</ele>
        <time>2018-05-03T20:09:04Z</time>
      </trkpt>
      <trkpt lat="47.5422" lon="-2.83788">
        <ele>15</ele>
        <time>2018-05-03T20:10:04Z</time>
      </trkpt>
      <trkpt lat="47.54204" lon="-2.83848">
        <ele>15</ele>
        <time>2018-05-03T20:11:04Z</time>
      </trkpt>
      <trkpt lat="47.542" lon="-2.83867">
        <ele>15</ele>
        <time>2018-05-03T20:12:04Z</time>
      </trkpt>
      <trkpt lat="47.54199" lon="-2.83883">
        <ele>15</ele>
        <time>2018-05-03T20:13:04Z</time>
      </trkpt>
      <trkpt lat="47.542" lon="-2.83901">
        <ele>15</ele>
        <time>2018-05-03T20:14:04Z</time>
      </trkpt>
      <trkpt lat="47.54213" lon="-2.83947">
        <ele>14</ele>
        <time>2018-05-03T20:15:04Z</time>
      </trkpt>
      <trkpt lat="47.54217" lon="-2.83966">
        <ele>14</ele>
        <time>2018-05-03T20:16:04Z</time>
      </trkpt>
      <trkpt lat="47.54232" lon="-2.84088">
        <ele>13</ele>
        <time>2018-05-03T20:17:04Z</time>
      </trkpt>
      <trkpt lat="47.54239" lon="-2.84131">
        <ele>13</ele>
        <time>2018-05-03T20:18:04Z</time>
      </trkpt>
      <trkpt lat="47.54248" lon="-2.84182">
        <ele>13</ele>
        <time>2018-05-03T20:19:04Z</time>
      </trkpt>
      <trkpt lat="47.54266" lon="-2.84259">
        <ele>12</ele>
        <time>2018-05-03T20:20:04Z</time>
      </trkpt>
      <trkpt lat="47.5427" lon="-2.84302">
        <ele>12</ele>
        <time>2018-05-03T20:21:04Z</time>
      </trkpt>
      <trkpt lat="47.54278" lon="-2.84418">
        <ele>12</ele>
        <time>2018-05-03T20:22:04Z</time>
      </trkpt>
      <trkpt lat="47.54277" lon="-2.8442">
        <ele>12</ele>
        <time>2018-05-03T20:23:04Z</time>
      </trkpt>
      <trkpt lat="47.54277" lon="-2.8442">
        <ele>12</ele>
        <time>2018-05-03T20:24:04Z</time>
      </trkpt>
      <trkpt lat="47.54271" lon="-2.8443">
        <ele>11</ele>
        <time>2018-05-03T20:25:04Z</time>
      </trkpt>
      <trkpt lat="47.54268" lon="-2.84439">
        <ele>11</ele>
        <time>2018-05-03T20:26:04Z</time>
      </trkpt>
      <trkpt lat="47.54144" lon="-2.84458">
        <ele>9</ele>
        <time>2018-05-03T20:27:04Z</time>
      </trkpt>
      <trkpt lat="47.54129" lon="-2.84465">
        <ele>8</ele>
        <time>2018-05-03T20:28:04Z</time>
      </trkpt>
      <trkpt lat="47.54093" lon="-2.84504">
        <ele>6</ele>
        <time>2018-05-03T20:29:04Z</time>
      </trkpt>
      <trkpt lat="47.54082" lon="-2.84505">
        <ele>6</ele>
        <time>2018-05-03T20:30:04Z</time>
      </trkpt>
      <trkpt lat="47.54067" lon="-2.84502">
        <ele>6</ele>
        <time>2018-05-03T20:31:04Z</time>
      </trkpt>
      <trkpt lat="47.54054" lon="-2.84495">
        <ele>6</ele>
        <time>2018-05-03T20:32:04Z</time>
      </trkpt>
      <trkpt lat="47.54017" lon="-2.8447">
        <ele>6</ele>
        <time>2018-05-03T20:33:04Z</time>
      </trkpt>
      <trkpt lat="47.54004" lon="-2.84464">
        <ele>6</ele>
        <time>2018-05-03T20:34:04Z</time>
      </trkpt>
      <trkpt lat="47.5399" lon="-2.84461">
        <ele>6</ele>
        <time>2018-05-03T20:35:04Z</time>
      </trkpt>
      <trkpt lat="47.53975" lon="-2.84462">
        <ele>5</ele>
        <time>2018-05-03T20:36:04Z</time>
      </trkpt>
      <trkpt lat="47.53951" lon="-2.84468">
        <ele>4</ele>
        <time>2018-05-03T20:37:04Z</time>
      </trkpt>
      <trkpt lat="47.53933" lon="-2.84469">
        <ele>3</ele>
        <time>2018-05-03T20:38:04Z</time>
      </trkpt>
      <trkpt lat="47.5391" lon="-2.84464">
        <ele>3</ele>
        <time>2018-05-03T20:39:04Z</time>
      </trkpt>
      <trkpt lat="47.53857" lon="-2.84438">
        <ele>3</ele>
        <time>2018-05-03T20:40:04Z</time>
      </trkpt>
      <trkpt lat="47.53831" lon="-2.84429">
        <ele>3</ele>
        <time>2018-05-03T20:41:04Z</time>
      </trkpt>
      <trkpt lat="47.53822" lon="-2.84428">
        <ele>3</ele>
        <time>2018-05-03T20:42:04Z</time>
      </trkpt>
      <trkpt lat="47.5381" lon="-2.8443">
        <ele>3</ele>
        <time>2018-05-03T20:43:04Z</time>
      </trkpt>
      <trkpt lat="47.53799" lon="-2.84436">
        <ele>4</ele>
        <time>2018-05-03T20:44:04Z</time>
      </trkpt>
      <trkpt lat="47.53791" lon="-2.84446">
        <ele>4</ele>
        <time>2018-05-03T20:45:04Z</time>
      </trkpt>
      <trkpt lat="47.53784" lon="-2.8446">
        <ele>4</ele>
        <time>2018-05-03T20:46:04Z</time>
      </trkpt>
      <trkpt lat="47.53781" lon="-2.8448">
        <ele>4</ele>
        <time>2018-05-03T20:47:04Z</time>
      </trkpt>
      <trkpt lat="47.53775" lon="-2.84553">
        <ele>4</ele>
        <time>2018-05-03T20:48:04Z</time>
      </trkpt>
      <trkpt lat="47.53766" lon="-2.84718">
        <ele>7</ele>
        <time>2018-05-03T20:49:04Z</time>
      </trkpt>
      <trkpt lat="47.53766" lon="-2.84769">
        <ele>8</ele>
        <time>2018-05-03T20:50:04Z</time>
      </trkpt>
      <trkpt lat="47.53756" lon="-2.84918">
        <ele>9</ele>
        <time>2018-05-03T20:51:04Z</time>
      </trkpt>
      <trkpt lat="47.5375" lon="-2.84936">
        <ele>9</ele>
        <time>2018-05-03T20:52:04Z</time>
      </trkpt>
      <trkpt lat="47.53735" lon="-2.84967">
        <ele>9</ele>
        <time>2018-05-03T20:53:04Z</time>
      </trkpt>
      <trkpt lat="47.5364" lon="-2.8499">
        <ele>10</ele>
        <time>2018-05-03T20:54:04Z</time>
      </trkpt>
      <trkpt lat="47.53514" lon="-2.84971">
        <ele>11</ele>
        <time>2018-05-03T20:55:04Z</time>
      </trkpt>
      <trkpt lat="47.53537" lon="-2.85063">
        <ele>7</ele>
        <time>2018-05-03T20:56:04Z</time>
      </trkpt>
      <trkpt lat="47.53537" lon="-2.85063">
        <ele>7</ele>
        <time>2018-05-03T20:57:04Z</time>
      </trkpt>
      <trkpt lat="47.53514" lon="-2.84971">
        <ele>11</ele>
        <time>2018-05-03T20:58:04Z</time>
      </trkpt>
      <trkpt lat="47.53497" lon="-2.84969">
        <ele>12</ele>
        <time>2018-05-03T20:59:04Z</time>
      </trkpt>
      <trkpt lat="47.53483" lon="-2.84964">
        <ele>12</ele>
        <time>2018-05-03T21:00:04Z</time>
      </trkpt>
      <trkpt lat="47.53493" lon="-2.85079">
        <ele>7</ele>
        <time>2018-05-03T21:01:04Z</time>
      </trkpt>
      <trkpt lat="47.5348" lon="-2.85172">
        <ele>6</ele>
        <time>2018-05-03T21:02:04Z</time>
      </trkpt>
      <trkpt lat="47.53469" lon="-2.8522">
        <ele>5</ele>
        <time>2018-05-03T21:03:04Z</time>
      </trkpt>
      <trkpt lat="47.5345" lon="-2.85289">
        <ele>5</ele>
        <time>2018-05-03T21:04:04Z</time>
      </trkpt>
      <trkpt lat="47.53448" lon="-2.8534">
        <ele>5</ele>
        <time>2018-05-03T21:05:04Z</time>
      </trkpt>
      <trkpt lat="47.53457" lon="-2.8543">
        <ele>5</ele>
        <time>2018-05-03T21:06:04Z</time>
      </trkpt>
      <trkpt lat="47.53482" lon="-2.85567">
        <ele>7</ele>
        <time>2018-05-03T21:07:04Z</time>
      </trkpt>
      <trkpt lat="47.53533" lon="-2.8583">
        <ele>13</ele>
        <time>2018-05-03T21:08:04Z</time>
      </trkpt>
      <trkpt lat="47.53537" lon="-2.85878">
        <ele>13</ele>
        <time>2018-05-03T21:09:04Z</time>
      </trkpt>
      <trkpt lat="47.53537" lon="-2.85897">
        <ele>14</ele>
        <time>2018-05-03T21:10:04Z</time>
      </trkpt>
      <trkpt lat="47.53533" lon="-2.85915">
        <ele>14</ele>
        <time>2018-05-03T21:11:04Z</time>
      </trkpt>
      <trkpt lat="47.53808" lon="-2.86837">
        <ele>17</ele>
        <time>2018-05-03T21:12:04Z</time>
      </trkpt>
      <trkpt lat="47.53818" lon="-2.86832">
        <ele>17</ele>
        <time>2018-05-03T21:13:04Z</time>
      </trkpt>
      <trkpt lat="47.53878" lon="-2.86831">
        <ele>17</ele>
        <time>2018-05-03T21:14:04Z</time>
      </trkpt>
      <trkpt lat="47.53915" lon="-2.86824">
        <ele>17</ele>
        <time>2018-05-03T21:15:04Z</time>
      </trkpt>
      <trkpt lat="47.53946" lon="-2.86825">
        <ele>17</ele>
        <time>2018-05-03T21:16:04Z</time>
      </trkpt>
      <trkpt lat="47.53996" lon="-2.86842">
        <ele>17</ele>
        <time>2018-05-03T21:17:04Z</time>
      </trkpt>
      <trkpt lat="47.54119" lon="-2.86863">
        <ele>15</ele>
        <time>2018-05-03T21:18:04Z</time>
      </trkpt>
      <trkpt lat="47.54151" lon="-2.8686">
        <ele>14</ele>
        <time>2018-05-03T21:19:04Z</time>
      </trkpt>
      <trkpt lat="47.54175" lon="-2.86851">
        <ele>14</ele>
        <time>2018-05-03T21:20:04Z</time>
      </trkpt>
      <trkpt lat="47.54279" lon="-2.86821">
        <ele>14</ele>
        <time>2018-05-03T21:21:04Z</time>
      </trkpt>
      <trkpt lat="47.54303" lon="-2.8681">
        <ele>14</ele>
        <time>2018-05-03T21:22:04Z</time>
      </trkpt>
      <trkpt lat="47.54321" lon="-2.86794">
        <ele>14</ele>
        <time>2018-05-03T21:23:04Z</time>
      </trkpt>
      <trkpt lat="47.54379" lon="-2.86697">
        <ele>15</ele>
        <time>2018-05-03T21:24:04Z</time>
      </trkpt>
      <trkpt lat="47.54398" lon="-2.86672">
        <ele>15</ele>
        <time>2018-05-03T21:25:04Z</time>
      </trkpt>
      <trkpt lat="47.54418" lon="-2.86655">
        <ele>15</ele>
        <time>2018-05-03T21:26:04Z</time>
      </trkpt>
      <trkpt lat="47.54462" lon="-2.86635">
        <ele>16</ele>
        <time>2018-05-03T21:27:04Z</time>
      </trkpt>
      <trkpt lat="47.54614" lon="-2.86642">
        <ele>19</ele>
        <time>2018-05-03T21:28:04Z</time>
      </trkpt>
      <trkpt lat="47.54675" lon="-2.86635">
        <ele>19</ele>
        <time>2018-05-03T21:29:04Z</time>
      </trkpt>
      <trkpt lat="47.547" lon="-2.86637">
        <ele>18</ele>
        <time>2018-05-03T21:30:04Z</time>
      </trkpt>
      <trkpt lat="47.5473" lon="-2.86635">
        <ele>17</ele>
        <time>2018-05-03T21:31:04Z</time>
      </trkpt>
      <trkpt lat="47.54781" lon="-2.86641">
        <ele>16</ele>
        <time>2018-05-03T21:32:04Z</time>
      </trkpt>
      <trkpt lat="47.54783" lon="-2.86639">
        <ele>16</ele>
        <time>2018-05-03T21:33:04Z</time>
      </trkpt>
      <trkpt lat="47.54809" lon="-2.8664">
        <ele>15</ele>
        <time>2018-05-03T21:34:04Z</time>
      </trkpt>
      <trkpt lat="47.54823" lon="-2.86642">
        <ele>15</ele>
        <time>2018-05-03T21:35:04Z</time>
      </trkpt>
      <trkpt lat="47.54858" lon="-2.86666">
        <ele>14</ele>
        <time>2018-05-03T21:36:04Z</time>
      </trkpt>
      <trkpt lat="47.54888" lon="-2.86682">
        <ele>14</ele>
        <time>2018-05-03T21:37:04Z</time>
      </trkpt>
      <trkpt lat="47.5492" lon="-2.86691">
        <ele>14</ele>
        <time>2018-05-03T21:38:04Z</time>
      </trkpt>
      <trkpt lat="47.54959" lon="-2.86699">
        <ele>13</ele>
        <time>2018-05-03T21:39:04Z</time>
      </trkpt>
      <trkpt lat="47.54985" lon="-2.86707">
        <ele>13</ele>
        <time>2018-05-03T21:40:04Z</time>
      </trkpt>
      <trkpt lat="47.55006" lon="-2.86717">
        <ele>12</ele>
        <time>2018-05-03T21:41:04Z</time>
      </trkpt>
      <trkpt lat="47.55049" lon="-2.86761">
        <ele>9</ele>
        <time>2018-05-03T21:42:04Z</time>
      </trkpt>
      <trkpt lat="47.55171" lon="-2.86946">
        <ele>2</ele>
        <time>2018-05-03T21:43:04Z</time>
      </trkpt>
      <trkpt lat="47.55213" lon="-2.8699">
        <ele>1</ele>
        <time>2018-05-03T21:44:04Z</time>
      </trkpt>
      <trkpt lat="47.55213" lon="-2.8699">
        <ele>1</ele>
        <time>2018-05-03T21:45:04Z</time>
      </trkpt>
      <trkpt lat="47.5525" lon="-2.87033">
        <ele>3</ele>
        <time>2018-05-03T21:46:04Z</time>
      </trkpt>
      <trkpt lat="47.55253" lon="-2.87041">
        <ele>4</ele>
        <time>2018-05-03T21:47:04Z</time>
      </trkpt>
      <trkpt lat="47.5526" lon="-2.8707">
        <ele>6</ele>
        <time>2018-05-03T21:48:04Z</time>
      </trkpt>
      <trkpt lat="47.55264" lon="-2.87211">
        <ele>9</ele>
        <time>2018-05-03T21:49:04Z</time>
      </trkpt>
      <trkpt lat="47.55286" lon="-2.87357">
        <ele>10</ele>
        <time>2018-05-03T21:50:04Z</time>
      </trkpt>
      <trkpt lat="47.55273" lon="-2.87418">
        <ele>11</ele>
        <time>2018-05-03T21:51:04Z</time>
      </trkpt>
      <trkpt lat="47.55254" lon="-2.87481">
        <ele>12</ele>
        <time>2018-05-03T21:52:04Z</time>
      </trkpt>
      <trkpt lat="47.55249" lon="-2.87506">
        <ele>12</ele>
        <time>2018-05-03T21:53:04Z</time>
      </trkpt>
      <trkpt lat="47.55248" lon="-2.87527">
        <ele>12</ele>
        <time>2018-05-03T21:54:04Z</time>
      </trkpt>
      <trkpt lat="47.55251" lon="-2.87553">
        <ele>12</ele>
        <time>2018-05-03T21:55:04Z</time>
      </trkpt>
      <trkpt lat="47.5528" lon="-2.87642">
        <ele>12</ele>
        <time>2018-05-03T21:56:04Z</time>
      </trkpt>
      <trkpt lat="47.55359" lon="-2.87857">
        <ele>12</ele>
        <time>2018-05-03T21:57:04Z</time>
      </trkpt>
      <trkpt lat="47.5537" lon="-2.879">
        <ele>15</ele>
        <time>2018-05-03T21:58:04Z</time>
      </trkpt>
      <trkpt lat="47.55369" lon="-2.87925">
        <ele>16</ele>
        <time>2018-05-03T21:59:04Z</time>
      </trkpt>
      <trkpt lat="47.5536" lon="-2.87962">
        <ele>16</ele>
        <time>2018-05-03T22:00:04Z</time>
      </trkpt>
      <trkpt lat="47.55327" lon="-2.87962">
        <ele>17</ele>
        <time>2018-05-03T22:01:04Z</time>
      </trkpt>
      <trkpt lat="47.55331" lon="-2.88024">
        <ele>16</ele>
        <time>2018-05-03T22:02:04Z</time>
      </trkpt>
      <trkpt lat="47.55321" lon="-2.88074">
        <ele>16</ele>
        <time>2018-05-03T22:03:04Z</time>
      </trkpt>
      <trkpt lat="47.55297" lon="-2.88164">
        <ele>16</ele>
        <time>2018-05-03T22:04:04Z</time>
      </trkpt>
      <trkpt lat="47.55297" lon="-2.88178">
        <ele>16</ele>
        <time>2018-05-03T22:05:04Z</time>
      </trkpt>
      <trkpt lat="47.553" lon="-2.88211">
        <ele>16</ele>
        <time>2018-05-03T22:06:04Z</time>
      </trkpt>
      <trkpt lat="47.553" lon="-2.88235">
        <ele>16</ele>
        <time>2018-05-03T22:07:04Z</time>
      </trkpt>
      <trkpt lat="47.55295" lon="-2.88263">
        <ele>16</ele>
        <time>2018-05-03T22:08:04Z</time>
      </trkpt>
      <trkpt lat="47.55283" lon="-2.8829">
        <ele>17</ele>
        <time>2018-05-03T22:09:04Z</time>
      </trkpt>
      <trkpt lat="47.55163" lon="-2.88495">
        <ele>18</ele>
        <time>2018-05-03T22:10:04Z</time>
      </trkpt>
      <trkpt lat="47.55144" lon="-2.88535">
        <ele>17</ele>
        <time>2018-05-03T22:11:04Z</time>
      </trkpt>
      <trkpt lat="47.55135" lon="-2.88573">
        <ele>17</ele>
        <time>2018-05-03T22:12:04Z</time>
      </trkpt>
      <trkpt lat="47.55131" lon="-2.8864">
        <ele>17</ele>
        <time>2018-05-03T22:13:04Z</time>
      </trkpt>
      <trkpt lat="47.55119" lon="-2.88694">
        <ele>17</ele>
        <time>2018-05-03T22:14:04Z</time>
      </trkpt>
      <trkpt lat="47.55101" lon="-2.88738">
        <ele>18</ele>
        <time>2018-05-03T22:15:04Z</time>
      </trkpt>
      <trkpt lat="47.5508" lon="-2.88776">
        <ele>18</ele>
        <time>2018-05-03T22:16:04Z</time>
      </trkpt>
      <trkpt lat="47.55035" lon="-2.88893">
        <ele>17</ele>
        <time>2018-05-03T22:17:04Z</time>
      </trkpt>
      <trkpt lat="47.55036" lon="-2.8893">
        <ele>14.4</ele>
        <time>2018-05-03T22:18:04Z</time>
      </trkpt>
      <trkpt lat="47.55018" lon="-2.88941">
        <ele>16</ele>
        <time>2018-05-03T22:19:04Z</time>
      </trkpt>
      <trkpt lat="47.55045" lon="-2.88982">
        <ele>14.6</ele>
        <time>2018-05-03T22:20:04Z</time>
      </trkpt>
      <trkpt lat="47.55008" lon="-2.89071">
        <ele>14</ele>
        <time>2018-05-03T22:21:04Z</time>
      </trkpt>
      <trkpt lat="47.55008" lon="-2.89074">
        <ele>13.3</ele>
        <extensions>
          <visugpx:TrkExtension xmlns:visugpx="https://www.visugpx.com/editgpx/">
            <visugpx:node>1</visugpx:node>
            </visugpx:TrkExtension>
        </extensions>
      </trkpt>
      <trkpt lat="47.55006" lon="-2.89123">
        <ele>14</ele>
        <time>2018-05-03T22:22:04Z</time>
      </trkpt>
      <trkpt lat="47.551" lon="-2.89147">
        <ele>15.9</ele>
      </trkpt>
      <trkpt lat="47.55013" lon="-2.89207">
        <ele>14</ele>
        <time>2018-05-03T22:23:04Z</time>
      </trkpt>
      <trkpt lat="47.55008" lon="-2.89222">
        <ele>14</ele>
        <time>2018-05-03T22:24:04Z</time>
      </trkpt>
      <trkpt lat="47.55007" lon="-2.89247">
        <ele>14</ele>
        <time>2018-05-03T22:25:04Z</time>
      </trkpt>
      <trkpt lat="47.5516" lon="-2.89235">
        <ele>15</ele>
      </trkpt>
      <trkpt lat="47.5501" lon="-2.89281">
        <ele>14</ele>
        <time>2018-05-03T22:26:04Z</time>
      </trkpt>
      <trkpt lat="47.55197" lon="-2.893">
        <ele>13.2</ele>
      </trkpt>
      <trkpt lat="47.55001" lon="-2.89328">
        <ele>14</ele>
        <time>2018-05-03T22:27:04Z</time>
      </trkpt>
      <trkpt lat="47.55236" lon="-2.89412">
        <ele>12.5</ele>
        <time>2018-05-03T22:28:04Z</time>
      </trkpt>
      <trkpt lat="47.54987" lon="-2.89347">
        <ele>13</ele>
        <time>2018-05-03T22:29:04Z</time>
      </trkpt>
      <trkpt lat="47.55232" lon="-2.89569">
        <ele>11.3</ele>
        <time>2018-05-03T22:30:04Z</time>
      </trkpt>
      <trkpt lat="47.54964" lon="-2.89398">
        <ele>11</ele>
        <time>2018-05-03T22:31:04Z</time>
      </trkpt>
      <trkpt lat="47.54968" lon="-2.89422">
        <ele>11</ele>
        <time>2018-05-03T22:32:04Z</time>
      </trkpt>
      <trkpt lat="47.54963" lon="-2.8948">
        <ele>9</ele>
        <time>2018-05-03T22:33:04Z</time>
      </trkpt>
      <trkpt lat="47.55155" lon="-2.89753">
        <ele>10</ele>
        <time>2018-05-03T22:34:04Z</time>
      </trkpt>
      <trkpt lat="47.55001" lon="-2.89942">
        <ele>13.9</ele>
        <time>2018-05-03T22:35:04Z</time>
      </trkpt>
      <trkpt lat="47.55009" lon="-2.89969">
        <ele>14</ele>
        <time>2018-05-03T22:36:04Z</time>
      </trkpt>
      <trkpt lat="47.55019" lon="-2.90013">
        <ele>13.7</ele>
        <time>2018-05-03T22:37:04Z</time>
      </trkpt>
      <trkpt lat="47.55016" lon="-2.90087">
        <ele>12.4</ele>
        <time>2018-05-03T22:38:04Z</time>
      </trkpt>
      <trkpt lat="47.5502" lon="-2.90184">
        <ele>11.1</ele>
      </trkpt>
      <trkpt lat="47.54835" lon="-2.90127">
        <ele>12</ele>
        <time>2018-05-03T22:39:04Z</time>
      </trkpt>
      <trkpt lat="47.54841" lon="-2.9013">
        <ele>12</ele>
        <time>2018-05-03T22:40:04Z</time>
      </trkpt>
      <trkpt lat="47.54842" lon="-2.90138">
        <ele>12</ele>
        <time>2018-05-03T22:41:04Z</time>
      </trkpt>
      <trkpt lat="47.5484" lon="-2.90143">
        <ele>12</ele>
        <time>2018-05-03T22:42:04Z</time>
      </trkpt>
      <trkpt lat="47.54833" lon="-2.90149">
        <ele>12</ele>
        <time>2018-05-03T22:43:04Z</time>
      </trkpt>
      <trkpt lat="47.54823" lon="-2.90171">
        <ele>12</ele>
        <time>2018-05-03T22:44:04Z</time>
      </trkpt>
      <trkpt lat="47.54824" lon="-2.9018">
        <ele>12</ele>
        <time>2018-05-03T22:45:04Z</time>
      </trkpt>
      <trkpt lat="47.55036" lon="-2.90325">
        <ele>8.3</ele>
        <time>2018-05-03T22:46:04Z</time>
      </trkpt>
      <trkpt lat="47.54818" lon="-2.90187">
        <ele>12</ele>
        <time>2018-05-03T22:47:04Z</time>
      </trkpt>
      <trkpt lat="47.54809" lon="-2.90185">
        <ele>12</ele>
        <time>2018-05-03T22:48:04Z</time>
      </trkpt>
      <trkpt lat="47.54796" lon="-2.90187">
        <ele>12</ele>
        <time>2018-05-03T22:49:04Z</time>
      </trkpt>
      <trkpt lat="47.54982" lon="-2.90451">
        <ele>8</ele>
      </trkpt>
      <trkpt lat="47.54678" lon="-2.90332">
        <ele>11</ele>
        <time>2018-05-03T22:50:04Z</time>
      </trkpt>
      <trkpt lat="47.54658" lon="-2.90348">
        <ele>11</ele>
        <time>2018-05-03T22:51:04Z</time>
      </trkpt>
      <trkpt lat="47.54657" lon="-2.90353">
        <ele>11</ele>
        <time>2018-05-03T22:52:04Z</time>
      </trkpt>
      <trkpt lat="47.54653" lon="-2.90359">
        <ele>11</ele>
        <time>2018-05-03T22:53:04Z</time>
      </trkpt>
      <trkpt lat="47.54647" lon="-2.90361">
        <ele>11</ele>
        <time>2018-05-03T22:54:04Z</time>
      </trkpt>
      <trkpt lat="47.54644" lon="-2.9036">
        <ele>11</ele>
        <time>2018-05-03T22:55:04Z</time>
      </trkpt>
      <trkpt lat="47.54994" lon="-2.90599">
        <ele>9.4</ele>
      </trkpt>
      <trkpt lat="47.54999" lon="-2.90631">
        <ele>9.2</ele>
      </trkpt>
      <trkpt lat="47.55033" lon="-2.90757">
        <ele>6.3</ele>
      </trkpt>
      <trkpt lat="47.54967" lon="-2.90734">
        <ele>4.4</ele>
      </trkpt>
      <trkpt lat="47.54947" lon="-2.90838">
        <ele>5.6</ele>
      </trkpt>
      <trkpt lat="47.54831" lon="-2.90971">
        <ele>5.2</ele>
        <time>2018-05-03T22:56:04Z</time>
      </trkpt>
      <trkpt lat="47.54646" lon="-2.91123">
        <ele>18</ele>
        <time>2018-05-03T23:11:04Z</time>
      </trkpt>
      <trkpt lat="47.54656" lon="-2.9115">
        <ele>18</ele>
        <time>2018-05-03T23:12:04Z</time>
      </trkpt>
      <trkpt lat="47.54663" lon="-2.91177">
        <ele>18</ele>
        <time>2018-05-03T23:13:04Z</time>
      </trkpt>
      <trkpt lat="47.54665" lon="-2.91203">
        <ele>17</ele>
        <time>2018-05-03T23:14:04Z</time>
      </trkpt>
      <trkpt lat="47.54665" lon="-2.91215">
        <ele>16</ele>
        <time>2018-05-03T23:15:04Z</time>
      </trkpt>
      <trkpt lat="47.54659" lon="-2.9126">
        <ele>14</ele>
        <time>2018-05-03T23:16:04Z</time>
      </trkpt>
      <trkpt lat="47.5465" lon="-2.9129">
        <ele>13</ele>
        <time>2018-05-03T23:17:04Z</time>
      </trkpt>
      <trkpt lat="47.54627" lon="-2.91357">
        <ele>9</ele>
        <time>2018-05-03T23:18:04Z</time>
      </trkpt>
      <trkpt lat="47.54622" lon="-2.91381">
        <ele>9</ele>
        <time>2018-05-03T23:19:04Z</time>
      </trkpt>
      <trkpt lat="47.54622" lon="-2.91397">
        <ele>9</ele>
        <time>2018-05-03T23:20:04Z</time>
      </trkpt>
      <trkpt lat="47.54626" lon="-2.91405">
        <ele>9</ele>
        <time>2018-05-03T23:21:04Z</time>
      </trkpt>
      <trkpt lat="47.54637" lon="-2.91419">
        <ele>10</ele>
        <time>2018-05-03T23:22:04Z</time>
      </trkpt>
      <trkpt lat="47.54681" lon="-2.91466">
        <ele>11</ele>
        <time>2018-05-03T23:23:04Z</time>
      </trkpt>
      <trkpt lat="47.54792" lon="-2.91597">
        <ele>7</ele>
        <time>2018-05-03T23:24:04Z</time>
      </trkpt>
      <trkpt lat="47.54873" lon="-2.91686">
        <ele>5</ele>
        <time>2018-05-03T23:25:04Z</time>
      </trkpt>
      <trkpt lat="47.54875" lon="-2.91694">
        <ele>5</ele>
        <time>2018-05-03T23:26:04Z</time>
      </trkpt>
      <trkpt lat="47.54878" lon="-2.91697">
        <ele>5</ele>
        <time>2018-05-03T23:27:04Z</time>
        <extensions>
          <visugpx:TrkExtension xmlns:visugpx="https://www.visugpx.com/editgpx/">
            <visugpx:node>2</visugpx:node>
            </visugpx:TrkExtension>
        </extensions>
      </trkpt>
    </trkseg>
  </trk>
</gpx>